<?xml version="1.0" encoding="UTF-8" standalone="no" ?>
<gpx xmlns="http://www.topografix.com/GPX/1/1" xmlns:xsi="http://www.w3.org/2001/XMLSchema-instance" xsi:schemaLocation="http://www.topografix.com/GPX/1/1 http://www.topografix.com/GPX/1/1/gpx.xsd" version="1.1" creator="VisuGPX - https://www.visugpx.com">
  <metadata>
    <name>Forêt de Saint Germain - Route du Buisson Richard</name>
    <desc><![CDATA[Parcours Marche Nordique de 9km]]></desc>
  </metadata>
  <trk>
    <name><![CDATA[Route du Buisson _R 001]]></name>
    <trkseg>
      <trkpt lat="48.92863" lon="2.11102">
        <ele>64.42</ele>
        <time>2025-01-19T08:28:11Z</time>
      </trkpt>
      <trkpt lat="48.92863" lon="2.11102">
        <ele>64.59</ele>
        <time>2025-01-19T08:28:26Z</time>
      </trkpt>
      <trkpt lat="48.92841" lon="2.11104">
        <ele>64.36</ele>
        <time>2025-01-19T08:33:45Z</time>
      </trkpt>
      <trkpt lat="48.92841" lon="2.11104">
        <ele>60.91</ele>
        <time>2025-01-19T08:33:46Z</time>
      </trkpt>
      <trkpt lat="48.92841" lon="2.11104">
        <ele>65.26</ele>
        <time>2025-01-19T08:33:48Z</time>
      </trkpt>
      <trkpt lat="48.92843" lon="2.1111">
        <ele>65.04</ele>
        <time>2025-01-19T08:34:22Z</time>
      </trkpt>
      <trkpt lat="48.92843" lon="2.11103">
        <ele>65.13</ele>
        <time>2025-01-19T08:36:29Z</time>
      </trkpt>
      <trkpt lat="48.9284" lon="2.11103">
        <ele>65.22</ele>
        <time>2025-01-19T08:37:12Z</time>
      </trkpt>
      <trkpt lat="48.92834" lon="2.11097">
        <ele>64.94</ele>
        <time>2025-01-19T08:37:27Z</time>
      </trkpt>
      <trkpt lat="48.92831" lon="2.11085">
        <ele>66.31</ele>
        <time>2025-01-19T08:37:42Z</time>
      </trkpt>
      <trkpt lat="48.92821" lon="2.11074">
        <ele>67.36</ele>
        <time>2025-01-19T08:37:54Z</time>
      </trkpt>
      <trkpt lat="48.92811" lon="2.11064">
        <ele>67.82</ele>
        <time>2025-01-19T08:38:02Z</time>
      </trkpt>
      <trkpt lat="48.92797" lon="2.11055">
        <ele>67.46</ele>
        <time>2025-01-19T08:38:14Z</time>
      </trkpt>
      <trkpt lat="48.92783" lon="2.11044">
        <ele>66.73</ele>
        <time>2025-01-19T08:38:26Z</time>
      </trkpt>
      <trkpt lat="48.92767" lon="2.11032">
        <ele>66.66</ele>
        <time>2025-01-19T08:38:38Z</time>
      </trkpt>
      <trkpt lat="48.92749" lon="2.11017">
        <ele>66.54</ele>
        <time>2025-01-19T08:38:53Z</time>
      </trkpt>
      <trkpt lat="48.9273" lon="2.11001">
        <ele>66.29</ele>
        <time>2025-01-19T08:39:06Z</time>
      </trkpt>
      <trkpt lat="48.92714" lon="2.10989">
        <ele>66.09</ele>
        <time>2025-01-19T08:39:20Z</time>
      </trkpt>
      <trkpt lat="48.92693" lon="2.10972">
        <ele>66.33</ele>
        <time>2025-01-19T08:39:34Z</time>
      </trkpt>
      <trkpt lat="48.92678" lon="2.10958">
        <ele>65.73</ele>
        <time>2025-01-19T08:39:48Z</time>
      </trkpt>
      <trkpt lat="48.92663" lon="2.10948">
        <ele>65.45</ele>
        <time>2025-01-19T08:40:04Z</time>
      </trkpt>
      <trkpt lat="48.92649" lon="2.10934">
        <ele>65.25</ele>
        <time>2025-01-19T08:40:15Z</time>
      </trkpt>
      <trkpt lat="48.92646" lon="2.10918">
        <ele>65.54</ele>
        <time>2025-01-19T08:40:22Z</time>
      </trkpt>
      <trkpt lat="48.92646" lon="2.109">
        <ele>66.82</ele>
        <time>2025-01-19T08:40:33Z</time>
      </trkpt>
      <trkpt lat="48.92649" lon="2.10876">
        <ele>68.02</ele>
        <time>2025-01-19T08:40:46Z</time>
      </trkpt>
      <trkpt lat="48.92651" lon="2.10847">
        <ele>69.72</ele>
        <time>2025-01-19T08:41:01Z</time>
      </trkpt>
      <trkpt lat="48.92653" lon="2.10819">
        <ele>69.66</ele>
        <time>2025-01-19T08:41:14Z</time>
      </trkpt>
      <trkpt lat="48.92654" lon="2.10815">
        <ele>69.42</ele>
        <time>2025-01-19T08:41:16Z</time>
      </trkpt>
      <trkpt lat="48.92655" lon="2.10806">
        <ele>69.27</ele>
        <time>2025-01-19T08:41:20Z</time>
      </trkpt>
      <trkpt lat="48.92655" lon="2.108">
        <ele>69.14</ele>
        <time>2025-01-19T08:41:23Z</time>
      </trkpt>
      <trkpt lat="48.92659" lon="2.10774">
        <ele>69.71</ele>
        <time>2025-01-19T08:41:34Z</time>
      </trkpt>
      <trkpt lat="48.92653" lon="2.1075">
        <ele>69.75</ele>
        <time>2025-01-19T08:41:45Z</time>
      </trkpt>
      <trkpt lat="48.92653" lon="2.10723">
        <ele>69.42</ele>
        <time>2025-01-19T08:41:58Z</time>
      </trkpt>
      <trkpt lat="48.92653" lon="2.10703">
        <ele>69.3</ele>
        <time>2025-01-19T08:42:08Z</time>
      </trkpt>
      <trkpt lat="48.92654" lon="2.10674">
        <ele>69.22</ele>
        <time>2025-01-19T08:42:21Z</time>
      </trkpt>
      <trkpt lat="48.92656" lon="2.10654">
        <ele>69.41</ele>
        <time>2025-01-19T08:42:29Z</time>
      </trkpt>
      <trkpt lat="48.92655" lon="2.10631">
        <ele>69.3</ele>
        <time>2025-01-19T08:42:39Z</time>
      </trkpt>
      <trkpt lat="48.92659" lon="2.10606">
        <ele>69.19</ele>
        <time>2025-01-19T08:42:52Z</time>
      </trkpt>
      <trkpt lat="48.92659" lon="2.10569">
        <ele>69.39</ele>
        <time>2025-01-19T08:43:07Z</time>
      </trkpt>
      <trkpt lat="48.92658" lon="2.10547">
        <ele>69.59</ele>
        <time>2025-01-19T08:43:15Z</time>
      </trkpt>
      <trkpt lat="48.92657" lon="2.10523">
        <ele>69.11</ele>
        <time>2025-01-19T08:43:23Z</time>
      </trkpt>
      <trkpt lat="48.92659" lon="2.10497">
        <ele>68.79</ele>
        <time>2025-01-19T08:43:35Z</time>
      </trkpt>
      <trkpt lat="48.92664" lon="2.10479">
        <ele>69.37</ele>
        <time>2025-01-19T08:43:45Z</time>
      </trkpt>
      <trkpt lat="48.92658" lon="2.10453">
        <ele>68.99</ele>
        <time>2025-01-19T08:43:56Z</time>
      </trkpt>
      <trkpt lat="48.92655" lon="2.10451">
        <ele>69.18</ele>
        <time>2025-01-19T08:43:58Z</time>
      </trkpt>
      <trkpt lat="48.92638" lon="2.10438">
        <ele>69.27</ele>
        <time>2025-01-19T08:44:10Z</time>
      </trkpt>
      <trkpt lat="48.92625" lon="2.10432">
        <ele>69.72</ele>
        <time>2025-01-19T08:44:21Z</time>
      </trkpt>
      <trkpt lat="48.9261" lon="2.10424">
        <ele>69.26</ele>
        <time>2025-01-19T08:44:33Z</time>
      </trkpt>
      <trkpt lat="48.9259" lon="2.10414">
        <ele>69.07</ele>
        <time>2025-01-19T08:44:44Z</time>
      </trkpt>
      <trkpt lat="48.92575" lon="2.10412">
        <ele>69.06</ele>
        <time>2025-01-19T08:44:54Z</time>
      </trkpt>
      <trkpt lat="48.92569" lon="2.10413">
        <ele>68.9</ele>
        <time>2025-01-19T08:44:58Z</time>
      </trkpt>
      <trkpt lat="48.92548" lon="2.10415">
        <ele>68.81</ele>
        <time>2025-01-19T08:45:13Z</time>
      </trkpt>
      <trkpt lat="48.92545" lon="2.10413">
        <ele>68.52</ele>
        <time>2025-01-19T08:45:15Z</time>
      </trkpt>
      <trkpt lat="48.92528" lon="2.1041">
        <ele>69.28</ele>
        <time>2025-01-19T08:45:30Z</time>
      </trkpt>
      <trkpt lat="48.9252" lon="2.10411">
        <ele>69.38</ele>
        <time>2025-01-19T08:45:42Z</time>
      </trkpt>
      <trkpt lat="48.92509" lon="2.10408">
        <ele>68.23</ele>
        <time>2025-01-19T08:45:54Z</time>
      </trkpt>
      <trkpt lat="48.92493" lon="2.10406">
        <ele>69.21</ele>
        <time>2025-01-19T08:46:07Z</time>
      </trkpt>
      <trkpt lat="48.92475" lon="2.10401">
        <ele>69.15</ele>
        <time>2025-01-19T08:46:21Z</time>
      </trkpt>
      <trkpt lat="48.92451" lon="2.10392">
        <ele>69.34</ele>
        <time>2025-01-19T08:46:37Z</time>
      </trkpt>
      <trkpt lat="48.92449" lon="2.10391">
        <ele>69.25</ele>
        <time>2025-01-19T08:46:38Z</time>
      </trkpt>
      <trkpt lat="48.9243" lon="2.10375">
        <ele>69.62</ele>
        <time>2025-01-19T08:46:51Z</time>
      </trkpt>
      <trkpt lat="48.92418" lon="2.10354">
        <ele>69.49</ele>
        <time>2025-01-19T08:47:02Z</time>
      </trkpt>
      <trkpt lat="48.92415" lon="2.10344">
        <ele>69.45</ele>
        <time>2025-01-19T08:47:08Z</time>
      </trkpt>
      <trkpt lat="48.92411" lon="2.10334">
        <ele>69.62</ele>
        <time>2025-01-19T08:47:13Z</time>
      </trkpt>
      <trkpt lat="48.92398" lon="2.10312">
        <ele>69.88</ele>
        <time>2025-01-19T08:47:26Z</time>
      </trkpt>
      <trkpt lat="48.92389" lon="2.10301">
        <ele>69.61</ele>
        <time>2025-01-19T08:47:33Z</time>
      </trkpt>
      <trkpt lat="48.92377" lon="2.10281">
        <ele>69.86</ele>
        <time>2025-01-19T08:47:44Z</time>
      </trkpt>
      <trkpt lat="48.92373" lon="2.10277">
        <ele>69.22</ele>
        <time>2025-01-19T08:47:49Z</time>
      </trkpt>
      <trkpt lat="48.92361" lon="2.10262">
        <ele>69.18</ele>
        <time>2025-01-19T08:48:00Z</time>
      </trkpt>
      <trkpt lat="48.92354" lon="2.10248">
        <ele>70.07</ele>
        <time>2025-01-19T08:48:11Z</time>
      </trkpt>
      <trkpt lat="48.92353" lon="2.10245">
        <ele>69.79</ele>
        <time>2025-01-19T08:48:13Z</time>
      </trkpt>
      <trkpt lat="48.92345" lon="2.1023">
        <ele>69.81</ele>
        <time>2025-01-19T08:48:24Z</time>
      </trkpt>
      <trkpt lat="48.92337" lon="2.10214">
        <ele>69.15</ele>
        <time>2025-01-19T08:48:35Z</time>
      </trkpt>
      <trkpt lat="48.92327" lon="2.10201">
        <ele>69.03</ele>
        <time>2025-01-19T08:48:43Z</time>
      </trkpt>
      <trkpt lat="48.92315" lon="2.10184">
        <ele>68.75</ele>
        <time>2025-01-19T08:48:55Z</time>
      </trkpt>
      <trkpt lat="48.92308" lon="2.10165">
        <ele>69.45</ele>
        <time>2025-01-19T08:49:08Z</time>
      </trkpt>
      <trkpt lat="48.92305" lon="2.1016">
        <ele>69.21</ele>
        <time>2025-01-19T08:49:10Z</time>
      </trkpt>
      <trkpt lat="48.923" lon="2.10154">
        <ele>69</ele>
        <time>2025-01-19T08:49:14Z</time>
      </trkpt>
      <trkpt lat="48.92292" lon="2.10134">
        <ele>68.48</ele>
        <time>2025-01-19T08:49:23Z</time>
      </trkpt>
      <trkpt lat="48.92282" lon="2.10118">
        <ele>68.84</ele>
        <time>2025-01-19T08:49:33Z</time>
      </trkpt>
      <trkpt lat="48.92271" lon="2.10098">
        <ele>68.45</ele>
        <time>2025-01-19T08:49:44Z</time>
      </trkpt>
      <trkpt lat="48.92269" lon="2.10094">
        <ele>68.32</ele>
        <time>2025-01-19T08:49:47Z</time>
      </trkpt>
      <trkpt lat="48.92265" lon="2.10088">
        <ele>68.22</ele>
        <time>2025-01-19T08:49:49Z</time>
      </trkpt>
      <trkpt lat="48.92254" lon="2.1007">
        <ele>68.04</ele>
        <time>2025-01-19T08:50:00Z</time>
      </trkpt>
      <trkpt lat="48.92248" lon="2.10062">
        <ele>68.05</ele>
        <time>2025-01-19T08:50:05Z</time>
      </trkpt>
      <trkpt lat="48.92238" lon="2.10047">
        <ele>68.05</ele>
        <time>2025-01-19T08:50:15Z</time>
      </trkpt>
      <trkpt lat="48.92234" lon="2.10028">
        <ele>68.08</ele>
        <time>2025-01-19T08:50:25Z</time>
      </trkpt>
      <trkpt lat="48.92229" lon="2.10003">
        <ele>67.96</ele>
        <time>2025-01-19T08:50:37Z</time>
      </trkpt>
      <trkpt lat="48.92222" lon="2.09977">
        <ele>68.23</ele>
        <time>2025-01-19T08:50:48Z</time>
      </trkpt>
      <trkpt lat="48.9222" lon="2.09957">
        <ele>68.53</ele>
        <time>2025-01-19T08:51:03Z</time>
      </trkpt>
      <trkpt lat="48.92219" lon="2.09941">
        <ele>67.84</ele>
        <time>2025-01-19T08:51:10Z</time>
      </trkpt>
      <trkpt lat="48.92214" lon="2.0993">
        <ele>67.93</ele>
        <time>2025-01-19T08:51:17Z</time>
      </trkpt>
      <trkpt lat="48.92209" lon="2.0992">
        <ele>68.02</ele>
        <time>2025-01-19T08:51:21Z</time>
      </trkpt>
      <trkpt lat="48.92198" lon="2.09898">
        <ele>67.55</ele>
        <time>2025-01-19T08:51:33Z</time>
      </trkpt>
      <trkpt lat="48.92194" lon="2.09891">
        <ele>67.64</ele>
        <time>2025-01-19T08:51:37Z</time>
      </trkpt>
      <trkpt lat="48.92192" lon="2.09886">
        <ele>67.98</ele>
        <time>2025-01-19T08:51:39Z</time>
      </trkpt>
      <trkpt lat="48.92186" lon="2.09868">
        <ele>67.76</ele>
        <time>2025-01-19T08:51:49Z</time>
      </trkpt>
      <trkpt lat="48.92179" lon="2.09852">
        <ele>67.39</ele>
        <time>2025-01-19T08:51:58Z</time>
      </trkpt>
      <trkpt lat="48.92177" lon="2.09842">
        <ele>67.81</ele>
        <time>2025-01-19T08:52:03Z</time>
      </trkpt>
      <trkpt lat="48.92173" lon="2.09817">
        <ele>66.96</ele>
        <time>2025-01-19T08:52:13Z</time>
      </trkpt>
      <trkpt lat="48.92169" lon="2.09787">
        <ele>67.55</ele>
        <time>2025-01-19T08:52:25Z</time>
      </trkpt>
      <trkpt lat="48.92168" lon="2.09779">
        <ele>67.36</ele>
        <time>2025-01-19T08:52:29Z</time>
      </trkpt>
      <trkpt lat="48.92168" lon="2.09759">
        <ele>67.42</ele>
        <time>2025-01-19T08:52:40Z</time>
      </trkpt>
      <trkpt lat="48.92169" lon="2.09736">
        <ele>67.51</ele>
        <time>2025-01-19T08:52:50Z</time>
      </trkpt>
      <trkpt lat="48.92167" lon="2.09724">
        <ele>67.67</ele>
        <time>2025-01-19T08:52:54Z</time>
      </trkpt>
      <trkpt lat="48.92162" lon="2.097">
        <ele>67.73</ele>
        <time>2025-01-19T08:53:05Z</time>
      </trkpt>
      <trkpt lat="48.92159" lon="2.09686">
        <ele>67.6</ele>
        <time>2025-01-19T08:53:10Z</time>
      </trkpt>
      <trkpt lat="48.92148" lon="2.09665">
        <ele>67.24</ele>
        <time>2025-01-19T08:53:21Z</time>
      </trkpt>
      <trkpt lat="48.92131" lon="2.0966">
        <ele>67.23</ele>
        <time>2025-01-19T08:53:34Z</time>
      </trkpt>
      <trkpt lat="48.92125" lon="2.09662">
        <ele>66.87</ele>
        <time>2025-01-19T08:53:38Z</time>
      </trkpt>
      <trkpt lat="48.92103" lon="2.09669">
        <ele>67.22</ele>
        <time>2025-01-19T08:53:52Z</time>
      </trkpt>
      <trkpt lat="48.92084" lon="2.09676">
        <ele>67.51</ele>
        <time>2025-01-19T08:54:04Z</time>
      </trkpt>
      <trkpt lat="48.92068" lon="2.0968">
        <ele>67.29</ele>
        <time>2025-01-19T08:54:15Z</time>
      </trkpt>
      <trkpt lat="48.92047" lon="2.09671">
        <ele>67.22</ele>
        <time>2025-01-19T08:54:27Z</time>
      </trkpt>
      <trkpt lat="48.92044" lon="2.0967">
        <ele>67.1</ele>
        <time>2025-01-19T08:54:29Z</time>
      </trkpt>
      <trkpt lat="48.92041" lon="2.09668">
        <ele>67.34</ele>
        <time>2025-01-19T08:54:32Z</time>
      </trkpt>
      <trkpt lat="48.92038" lon="2.09666">
        <ele>66.56</ele>
        <time>2025-01-19T08:54:34Z</time>
      </trkpt>
      <trkpt lat="48.92026" lon="2.09655">
        <ele>67.39</ele>
        <time>2025-01-19T08:54:45Z</time>
      </trkpt>
      <trkpt lat="48.92012" lon="2.09649">
        <ele>67.02</ele>
        <time>2025-01-19T08:54:57Z</time>
      </trkpt>
      <trkpt lat="48.92004" lon="2.09639">
        <ele>67.04</ele>
        <time>2025-01-19T08:55:04Z</time>
      </trkpt>
      <trkpt lat="48.91998" lon="2.09631">
        <ele>66.73</ele>
        <time>2025-01-19T08:55:16Z</time>
      </trkpt>
      <trkpt lat="48.91992" lon="2.09621">
        <ele>66.6</ele>
        <time>2025-01-19T08:55:26Z</time>
      </trkpt>
      <trkpt lat="48.91987" lon="2.0962">
        <ele>67.3</ele>
        <time>2025-01-19T08:55:29Z</time>
      </trkpt>
      <trkpt lat="48.91983" lon="2.09618">
        <ele>66.69</ele>
        <time>2025-01-19T08:55:41Z</time>
      </trkpt>
      <trkpt lat="48.9199" lon="2.09622">
        <ele>66.62</ele>
        <time>2025-01-19T08:55:51Z</time>
      </trkpt>
      <trkpt lat="48.92" lon="2.09616">
        <ele>67.08</ele>
        <time>2025-01-19T08:56:02Z</time>
      </trkpt>
      <trkpt lat="48.92" lon="2.09618">
        <ele>66.82</ele>
        <time>2025-01-19T08:56:11Z</time>
      </trkpt>
      <trkpt lat="48.92001" lon="2.09638">
        <ele>67.14</ele>
        <time>2025-01-19T08:56:23Z</time>
      </trkpt>
      <trkpt lat="48.92006" lon="2.09647">
        <ele>67.21</ele>
        <time>2025-01-19T08:56:35Z</time>
      </trkpt>
      <trkpt lat="48.92002" lon="2.09648">
        <ele>66.62</ele>
        <time>2025-01-19T08:56:52Z</time>
      </trkpt>
      <trkpt lat="48.91996" lon="2.09644">
        <ele>66.36</ele>
        <time>2025-01-19T08:57:07Z</time>
      </trkpt>
      <trkpt lat="48.91997" lon="2.0964">
        <ele>67.14</ele>
        <time>2025-01-19T08:57:21Z</time>
      </trkpt>
      <trkpt lat="48.91996" lon="2.09639">
        <ele>66.52</ele>
        <time>2025-01-19T08:57:40Z</time>
      </trkpt>
      <trkpt lat="48.91998" lon="2.09637">
        <ele>66.29</ele>
        <time>2025-01-19T08:57:55Z</time>
      </trkpt>
      <trkpt lat="48.91995" lon="2.09634">
        <ele>66.6</ele>
        <time>2025-01-19T08:58:10Z</time>
      </trkpt>
      <trkpt lat="48.91989" lon="2.09628">
        <ele>66.09</ele>
        <time>2025-01-19T08:58:18Z</time>
      </trkpt>
      <trkpt lat="48.91978" lon="2.09607">
        <ele>65.57</ele>
        <time>2025-01-19T08:58:31Z</time>
      </trkpt>
      <trkpt lat="48.91967" lon="2.09585">
        <ele>65.39</ele>
        <time>2025-01-19T08:58:43Z</time>
      </trkpt>
      <trkpt lat="48.91958" lon="2.0957">
        <ele>65.07</ele>
        <time>2025-01-19T08:58:52Z</time>
      </trkpt>
      <trkpt lat="48.91951" lon="2.09556">
        <ele>64.78</ele>
        <time>2025-01-19T08:59:03Z</time>
      </trkpt>
      <trkpt lat="48.91943" lon="2.09543">
        <ele>64.77</ele>
        <time>2025-01-19T08:59:14Z</time>
      </trkpt>
      <trkpt lat="48.91933" lon="2.09526">
        <ele>64.3</ele>
        <time>2025-01-19T08:59:25Z</time>
      </trkpt>
      <trkpt lat="48.91926" lon="2.09514">
        <ele>63.88</ele>
        <time>2025-01-19T08:59:34Z</time>
      </trkpt>
      <trkpt lat="48.91922" lon="2.0951">
        <ele>63.85</ele>
        <time>2025-01-19T08:59:38Z</time>
      </trkpt>
      <trkpt lat="48.91921" lon="2.09509">
        <ele>64.17</ele>
        <time>2025-01-19T08:59:39Z</time>
      </trkpt>
      <trkpt lat="48.9192" lon="2.09507">
        <ele>64.21</ele>
        <time>2025-01-19T08:59:40Z</time>
      </trkpt>
      <trkpt lat="48.91913" lon="2.0949">
        <ele>63.83</ele>
        <time>2025-01-19T08:59:48Z</time>
      </trkpt>
      <trkpt lat="48.91911" lon="2.09486">
        <ele>63.4</ele>
        <time>2025-01-19T08:59:50Z</time>
      </trkpt>
      <trkpt lat="48.91902" lon="2.0947">
        <ele>64.15</ele>
        <time>2025-01-19T09:00:01Z</time>
      </trkpt>
      <trkpt lat="48.9189" lon="2.09452">
        <ele>63.64</ele>
        <time>2025-01-19T09:00:12Z</time>
      </trkpt>
      <trkpt lat="48.91882" lon="2.09439">
        <ele>62.76</ele>
        <time>2025-01-19T09:00:20Z</time>
      </trkpt>
      <trkpt lat="48.91881" lon="2.09437">
        <ele>62.78</ele>
        <time>2025-01-19T09:00:21Z</time>
      </trkpt>
      <trkpt lat="48.9188" lon="2.09435">
        <ele>63.01</ele>
        <time>2025-01-19T09:00:22Z</time>
      </trkpt>
      <trkpt lat="48.91879" lon="2.09433">
        <ele>62.86</ele>
        <time>2025-01-19T09:00:23Z</time>
      </trkpt>
      <trkpt lat="48.91878" lon="2.09431">
        <ele>63.11</ele>
        <time>2025-01-19T09:00:24Z</time>
      </trkpt>
      <trkpt lat="48.91867" lon="2.09414">
        <ele>63.37</ele>
        <time>2025-01-19T09:00:34Z</time>
      </trkpt>
      <trkpt lat="48.91865" lon="2.09413">
        <ele>63.73</ele>
        <time>2025-01-19T09:00:35Z</time>
      </trkpt>
      <trkpt lat="48.91864" lon="2.09411">
        <ele>63.32</ele>
        <time>2025-01-19T09:00:36Z</time>
      </trkpt>
      <trkpt lat="48.91863" lon="2.09409">
        <ele>63.31</ele>
        <time>2025-01-19T09:00:37Z</time>
      </trkpt>
      <trkpt lat="48.91852" lon="2.09387">
        <ele>64.06</ele>
        <time>2025-01-19T09:00:49Z</time>
      </trkpt>
      <trkpt lat="48.91842" lon="2.09367">
        <ele>63.62</ele>
        <time>2025-01-19T09:01:00Z</time>
      </trkpt>
      <trkpt lat="48.91841" lon="2.09366">
        <ele>63.61</ele>
        <time>2025-01-19T09:01:01Z</time>
      </trkpt>
      <trkpt lat="48.9184" lon="2.09364">
        <ele>63.64</ele>
        <time>2025-01-19T09:01:02Z</time>
      </trkpt>
      <trkpt lat="48.91839" lon="2.09362">
        <ele>63.33</ele>
        <time>2025-01-19T09:01:03Z</time>
      </trkpt>
      <trkpt lat="48.91838" lon="2.0936">
        <ele>63.19</ele>
        <time>2025-01-19T09:01:04Z</time>
      </trkpt>
      <trkpt lat="48.91837" lon="2.09358">
        <ele>64.01</ele>
        <time>2025-01-19T09:01:05Z</time>
      </trkpt>
      <trkpt lat="48.91835" lon="2.09357">
        <ele>64.01</ele>
        <time>2025-01-19T09:01:06Z</time>
      </trkpt>
      <trkpt lat="48.91821" lon="2.09331">
        <ele>63.8</ele>
        <time>2025-01-19T09:01:19Z</time>
      </trkpt>
      <trkpt lat="48.91818" lon="2.09315">
        <ele>64.53</ele>
        <time>2025-01-19T09:01:29Z</time>
      </trkpt>
      <trkpt lat="48.91818" lon="2.09313">
        <ele>63.96</ele>
        <time>2025-01-19T09:01:30Z</time>
      </trkpt>
      <trkpt lat="48.91819" lon="2.09311">
        <ele>64.46</ele>
        <time>2025-01-19T09:01:31Z</time>
      </trkpt>
      <trkpt lat="48.91819" lon="2.0931">
        <ele>64.06</ele>
        <time>2025-01-19T09:01:32Z</time>
      </trkpt>
      <trkpt lat="48.9182" lon="2.09308">
        <ele>64.24</ele>
        <time>2025-01-19T09:01:33Z</time>
      </trkpt>
      <trkpt lat="48.91825" lon="2.09296">
        <ele>64.24</ele>
        <time>2025-01-19T09:01:42Z</time>
      </trkpt>
      <trkpt lat="48.91827" lon="2.09295">
        <ele>64.5</ele>
        <time>2025-01-19T09:01:43Z</time>
      </trkpt>
      <trkpt lat="48.91829" lon="2.09287">
        <ele>64.87</ele>
        <time>2025-01-19T09:01:50Z</time>
      </trkpt>
      <trkpt lat="48.91838" lon="2.09282">
        <ele>64.36</ele>
        <time>2025-01-19T09:02:02Z</time>
      </trkpt>
      <trkpt lat="48.91839" lon="2.09281">
        <ele>64.66</ele>
        <time>2025-01-19T09:02:03Z</time>
      </trkpt>
      <trkpt lat="48.9184" lon="2.09282">
        <ele>64.01</ele>
        <time>2025-01-19T09:02:04Z</time>
      </trkpt>
      <trkpt lat="48.91852" lon="2.09284">
        <ele>64.28</ele>
        <time>2025-01-19T09:02:13Z</time>
      </trkpt>
      <trkpt lat="48.91865" lon="2.09289">
        <ele>64.21</ele>
        <time>2025-01-19T09:02:22Z</time>
      </trkpt>
      <trkpt lat="48.91872" lon="2.09285">
        <ele>63.71</ele>
        <time>2025-01-19T09:02:27Z</time>
      </trkpt>
      <trkpt lat="48.91874" lon="2.09284">
        <ele>63.62</ele>
        <time>2025-01-19T09:02:28Z</time>
      </trkpt>
      <trkpt lat="48.91875" lon="2.09284">
        <ele>63.86</ele>
        <time>2025-01-19T09:02:29Z</time>
      </trkpt>
      <trkpt lat="48.91881" lon="2.0928">
        <ele>63.46</ele>
        <time>2025-01-19T09:02:37Z</time>
      </trkpt>
      <trkpt lat="48.9189" lon="2.09271">
        <ele>63.83</ele>
        <time>2025-01-19T09:02:48Z</time>
      </trkpt>
      <trkpt lat="48.91896" lon="2.09261">
        <ele>64.03</ele>
        <time>2025-01-19T09:02:54Z</time>
      </trkpt>
      <trkpt lat="48.91897" lon="2.09258">
        <ele>63.71</ele>
        <time>2025-01-19T09:02:55Z</time>
      </trkpt>
      <trkpt lat="48.91908" lon="2.09244">
        <ele>64.04</ele>
        <time>2025-01-19T09:03:06Z</time>
      </trkpt>
      <trkpt lat="48.91916" lon="2.09225">
        <ele>63.4</ele>
        <time>2025-01-19T09:03:14Z</time>
      </trkpt>
      <trkpt lat="48.91917" lon="2.09223">
        <ele>63.75</ele>
        <time>2025-01-19T09:03:15Z</time>
      </trkpt>
      <trkpt lat="48.91922" lon="2.09212">
        <ele>63.8</ele>
        <time>2025-01-19T09:03:21Z</time>
      </trkpt>
      <trkpt lat="48.9193" lon="2.09195">
        <ele>63.79</ele>
        <time>2025-01-19T09:03:31Z</time>
      </trkpt>
      <trkpt lat="48.91934" lon="2.09187">
        <ele>63.75</ele>
        <time>2025-01-19T09:03:35Z</time>
      </trkpt>
      <trkpt lat="48.91935" lon="2.09185">
        <ele>63.65</ele>
        <time>2025-01-19T09:03:36Z</time>
      </trkpt>
      <trkpt lat="48.91936" lon="2.09183">
        <ele>63.66</ele>
        <time>2025-01-19T09:03:37Z</time>
      </trkpt>
      <trkpt lat="48.91943" lon="2.09168">
        <ele>64</ele>
        <time>2025-01-19T09:03:46Z</time>
      </trkpt>
      <trkpt lat="48.91951" lon="2.09156">
        <ele>63.67</ele>
        <time>2025-01-19T09:03:53Z</time>
      </trkpt>
      <trkpt lat="48.9196" lon="2.09133">
        <ele>63.6</ele>
        <time>2025-01-19T09:04:04Z</time>
      </trkpt>
      <trkpt lat="48.91962" lon="2.0913">
        <ele>63.85</ele>
        <time>2025-01-19T09:04:05Z</time>
      </trkpt>
      <trkpt lat="48.91969" lon="2.09109">
        <ele>63.65</ele>
        <time>2025-01-19T09:04:15Z</time>
      </trkpt>
      <trkpt lat="48.91974" lon="2.09098">
        <ele>63.96</ele>
        <time>2025-01-19T09:04:22Z</time>
      </trkpt>
      <trkpt lat="48.91975" lon="2.09097">
        <ele>63.63</ele>
        <time>2025-01-19T09:04:23Z</time>
      </trkpt>
      <trkpt lat="48.91985" lon="2.09083">
        <ele>63.06</ele>
        <time>2025-01-19T09:04:31Z</time>
      </trkpt>
      <trkpt lat="48.91986" lon="2.09082">
        <ele>62.99</ele>
        <time>2025-01-19T09:04:32Z</time>
      </trkpt>
      <trkpt lat="48.91995" lon="2.09065">
        <ele>62.83</ele>
        <time>2025-01-19T09:04:42Z</time>
      </trkpt>
      <trkpt lat="48.92005" lon="2.09045">
        <ele>63.26</ele>
        <time>2025-01-19T09:04:52Z</time>
      </trkpt>
      <trkpt lat="48.92009" lon="2.09035">
        <ele>62.72</ele>
        <time>2025-01-19T09:04:56Z</time>
      </trkpt>
      <trkpt lat="48.92011" lon="2.0903">
        <ele>63.29</ele>
        <time>2025-01-19T09:04:58Z</time>
      </trkpt>
      <trkpt lat="48.92012" lon="2.09028">
        <ele>62.75</ele>
        <time>2025-01-19T09:04:59Z</time>
      </trkpt>
      <trkpt lat="48.92013" lon="2.09026">
        <ele>62.53</ele>
        <time>2025-01-19T09:05:00Z</time>
      </trkpt>
      <trkpt lat="48.92016" lon="2.09018">
        <ele>63.09</ele>
        <time>2025-01-19T09:05:04Z</time>
      </trkpt>
      <trkpt lat="48.92017" lon="2.09017">
        <ele>62.69</ele>
        <time>2025-01-19T09:05:05Z</time>
      </trkpt>
      <trkpt lat="48.92022" lon="2.09004">
        <ele>62.82</ele>
        <time>2025-01-19T09:05:15Z</time>
      </trkpt>
      <trkpt lat="48.92036" lon="2.09006">
        <ele>62.65</ele>
        <time>2025-01-19T09:05:29Z</time>
      </trkpt>
      <trkpt lat="48.92038" lon="2.09008">
        <ele>62.42</ele>
        <time>2025-01-19T09:05:31Z</time>
      </trkpt>
      <trkpt lat="48.92053" lon="2.09021">
        <ele>61.88</ele>
        <time>2025-01-19T09:05:41Z</time>
      </trkpt>
      <trkpt lat="48.92069" lon="2.09037">
        <ele>62</ele>
        <time>2025-01-19T09:05:53Z</time>
      </trkpt>
      <trkpt lat="48.9208" lon="2.09052">
        <ele>61.44</ele>
        <time>2025-01-19T09:06:04Z</time>
      </trkpt>
      <trkpt lat="48.92087" lon="2.09062">
        <ele>61.23</ele>
        <time>2025-01-19T09:06:10Z</time>
      </trkpt>
      <trkpt lat="48.92099" lon="2.09076">
        <ele>60.9</ele>
        <time>2025-01-19T09:06:21Z</time>
      </trkpt>
      <trkpt lat="48.92118" lon="2.09094">
        <ele>60.69</ele>
        <time>2025-01-19T09:06:34Z</time>
      </trkpt>
      <trkpt lat="48.92128" lon="2.0911">
        <ele>60.93</ele>
        <time>2025-01-19T09:06:50Z</time>
      </trkpt>
      <trkpt lat="48.92139" lon="2.09126">
        <ele>60.67</ele>
        <time>2025-01-19T09:07:00Z</time>
      </trkpt>
      <trkpt lat="48.92141" lon="2.09127">
        <ele>60.34</ele>
        <time>2025-01-19T09:07:01Z</time>
      </trkpt>
      <trkpt lat="48.92149" lon="2.09136">
        <ele>60.36</ele>
        <time>2025-01-19T09:07:09Z</time>
      </trkpt>
      <trkpt lat="48.92165" lon="2.09154">
        <ele>59.77</ele>
        <time>2025-01-19T09:07:23Z</time>
      </trkpt>
      <trkpt lat="48.92179" lon="2.0917">
        <ele>59.54</ele>
        <time>2025-01-19T09:07:34Z</time>
      </trkpt>
      <trkpt lat="48.9219" lon="2.09183">
        <ele>59.5</ele>
        <time>2025-01-19T09:07:44Z</time>
      </trkpt>
      <trkpt lat="48.92201" lon="2.09196">
        <ele>59.27</ele>
        <time>2025-01-19T09:07:53Z</time>
      </trkpt>
      <trkpt lat="48.92209" lon="2.09204">
        <ele>59.24</ele>
        <time>2025-01-19T09:07:59Z</time>
      </trkpt>
      <trkpt lat="48.92223" lon="2.09218">
        <ele>59.38</ele>
        <time>2025-01-19T09:08:10Z</time>
      </trkpt>
      <trkpt lat="48.9224" lon="2.09238">
        <ele>58.79</ele>
        <time>2025-01-19T09:08:24Z</time>
      </trkpt>
      <trkpt lat="48.92251" lon="2.09252">
        <ele>59.28</ele>
        <time>2025-01-19T09:08:33Z</time>
      </trkpt>
      <trkpt lat="48.92265" lon="2.09268">
        <ele>59.21</ele>
        <time>2025-01-19T09:08:44Z</time>
      </trkpt>
      <trkpt lat="48.92278" lon="2.09284">
        <ele>59.14</ele>
        <time>2025-01-19T09:08:57Z</time>
      </trkpt>
      <trkpt lat="48.92283" lon="2.09287">
        <ele>58.64</ele>
        <time>2025-01-19T09:09:00Z</time>
      </trkpt>
      <trkpt lat="48.92298" lon="2.09303">
        <ele>58.95</ele>
        <time>2025-01-19T09:09:12Z</time>
      </trkpt>
      <trkpt lat="48.92301" lon="2.09317">
        <ele>58.09</ele>
        <time>2025-01-19T09:09:23Z</time>
      </trkpt>
      <trkpt lat="48.92312" lon="2.09331">
        <ele>58.28</ele>
        <time>2025-01-19T09:09:35Z</time>
      </trkpt>
      <trkpt lat="48.9233" lon="2.09347">
        <ele>57.99</ele>
        <time>2025-01-19T09:09:48Z</time>
      </trkpt>
      <trkpt lat="48.92343" lon="2.09367">
        <ele>57.59</ele>
        <time>2025-01-19T09:10:02Z</time>
      </trkpt>
      <trkpt lat="48.9236" lon="2.09387">
        <ele>58.09</ele>
        <time>2025-01-19T09:10:16Z</time>
      </trkpt>
      <trkpt lat="48.92364" lon="2.0939">
        <ele>57.86</ele>
        <time>2025-01-19T09:10:18Z</time>
      </trkpt>
      <trkpt lat="48.9238" lon="2.09409">
        <ele>57.68</ele>
        <time>2025-01-19T09:10:30Z</time>
      </trkpt>
      <trkpt lat="48.92392" lon="2.09421">
        <ele>57.2</ele>
        <time>2025-01-19T09:10:39Z</time>
      </trkpt>
      <trkpt lat="48.92403" lon="2.09436">
        <ele>57.2</ele>
        <time>2025-01-19T09:10:48Z</time>
      </trkpt>
      <trkpt lat="48.92416" lon="2.09447">
        <ele>57.16</ele>
        <time>2025-01-19T09:10:57Z</time>
      </trkpt>
      <trkpt lat="48.92431" lon="2.0947">
        <ele>56.74</ele>
        <time>2025-01-19T09:11:10Z</time>
      </trkpt>
      <trkpt lat="48.9245" lon="2.0949">
        <ele>56.8</ele>
        <time>2025-01-19T09:11:21Z</time>
      </trkpt>
      <trkpt lat="48.92468" lon="2.09509">
        <ele>57.23</ele>
        <time>2025-01-19T09:11:34Z</time>
      </trkpt>
      <trkpt lat="48.9248" lon="2.0952">
        <ele>57.02</ele>
        <time>2025-01-19T09:11:44Z</time>
      </trkpt>
      <trkpt lat="48.92485" lon="2.09527">
        <ele>56.72</ele>
        <time>2025-01-19T09:11:49Z</time>
      </trkpt>
      <trkpt lat="48.92502" lon="2.09547">
        <ele>56.59</ele>
        <time>2025-01-19T09:12:01Z</time>
      </trkpt>
      <trkpt lat="48.92519" lon="2.09565">
        <ele>56.86</ele>
        <time>2025-01-19T09:12:14Z</time>
      </trkpt>
      <trkpt lat="48.92528" lon="2.09575">
        <ele>56.58</ele>
        <time>2025-01-19T09:12:20Z</time>
      </trkpt>
      <trkpt lat="48.92529" lon="2.09577">
        <ele>56.14</ele>
        <time>2025-01-19T09:12:21Z</time>
      </trkpt>
      <trkpt lat="48.92532" lon="2.09586">
        <ele>56.23</ele>
        <time>2025-01-19T09:12:31Z</time>
      </trkpt>
      <trkpt lat="48.92535" lon="2.09589">
        <ele>56.41</ele>
        <time>2025-01-19T09:12:46Z</time>
      </trkpt>
      <trkpt lat="48.92534" lon="2.0959">
        <ele>56.04</ele>
        <time>2025-01-19T09:13:05Z</time>
      </trkpt>
      <trkpt lat="48.92532" lon="2.09594">
        <ele>56.73</ele>
        <time>2025-01-19T09:13:29Z</time>
      </trkpt>
      <trkpt lat="48.92533" lon="2.09593">
        <ele>56.87</ele>
        <time>2025-01-19T09:13:46Z</time>
      </trkpt>
      <trkpt lat="48.92533" lon="2.09592">
        <ele>57.15</ele>
        <time>2025-01-19T09:14:03Z</time>
      </trkpt>
      <trkpt lat="48.92535" lon="2.0959">
        <ele>57.07</ele>
        <time>2025-01-19T09:14:17Z</time>
      </trkpt>
      <trkpt lat="48.92532" lon="2.09595">
        <ele>56.65</ele>
        <time>2025-01-19T09:14:29Z</time>
      </trkpt>
      <trkpt lat="48.92535" lon="2.09594">
        <ele>57.35</ele>
        <time>2025-01-19T09:14:45Z</time>
      </trkpt>
      <trkpt lat="48.92542" lon="2.09589">
        <ele>57.74</ele>
        <time>2025-01-19T09:14:59Z</time>
      </trkpt>
      <trkpt lat="48.92544" lon="2.09589">
        <ele>57.71</ele>
        <time>2025-01-19T09:15:00Z</time>
      </trkpt>
      <trkpt lat="48.92555" lon="2.09589">
        <ele>56.99</ele>
        <time>2025-01-19T09:15:10Z</time>
      </trkpt>
      <trkpt lat="48.92562" lon="2.09589">
        <ele>57.18</ele>
        <time>2025-01-19T09:15:16Z</time>
      </trkpt>
      <trkpt lat="48.92564" lon="2.09588">
        <ele>56.89</ele>
        <time>2025-01-19T09:15:17Z</time>
      </trkpt>
      <trkpt lat="48.92566" lon="2.09588">
        <ele>57.43</ele>
        <time>2025-01-19T09:15:18Z</time>
      </trkpt>
      <trkpt lat="48.92567" lon="2.09588">
        <ele>57.17</ele>
        <time>2025-01-19T09:15:19Z</time>
      </trkpt>
      <trkpt lat="48.92569" lon="2.09588">
        <ele>56.87</ele>
        <time>2025-01-19T09:15:20Z</time>
      </trkpt>
      <trkpt lat="48.9257" lon="2.09588">
        <ele>57.25</ele>
        <time>2025-01-19T09:15:21Z</time>
      </trkpt>
      <trkpt lat="48.92584" lon="2.0959">
        <ele>56.71</ele>
        <time>2025-01-19T09:15:34Z</time>
      </trkpt>
      <trkpt lat="48.92592" lon="2.09589">
        <ele>57.32</ele>
        <time>2025-01-19T09:15:39Z</time>
      </trkpt>
      <trkpt lat="48.92597" lon="2.09588">
        <ele>56.33</ele>
        <time>2025-01-19T09:15:43Z</time>
      </trkpt>
      <trkpt lat="48.92614" lon="2.09588">
        <ele>57.21</ele>
        <time>2025-01-19T09:15:54Z</time>
      </trkpt>
      <trkpt lat="48.92631" lon="2.09587">
        <ele>56.33</ele>
        <time>2025-01-19T09:16:04Z</time>
      </trkpt>
      <trkpt lat="48.92643" lon="2.09588">
        <ele>56.33</ele>
        <time>2025-01-19T09:16:15Z</time>
      </trkpt>
      <trkpt lat="48.92646" lon="2.09587">
        <ele>56.33</ele>
        <time>2025-01-19T09:16:17Z</time>
      </trkpt>
      <trkpt lat="48.92661" lon="2.09588">
        <ele>56.63</ele>
        <time>2025-01-19T09:16:26Z</time>
      </trkpt>
      <trkpt lat="48.92675" lon="2.0959">
        <ele>56.87</ele>
        <time>2025-01-19T09:16:38Z</time>
      </trkpt>
      <trkpt lat="48.92678" lon="2.0959">
        <ele>56.73</ele>
        <time>2025-01-19T09:16:40Z</time>
      </trkpt>
      <trkpt lat="48.92688" lon="2.09591">
        <ele>56.42</ele>
        <time>2025-01-19T09:16:47Z</time>
      </trkpt>
      <trkpt lat="48.92706" lon="2.09589">
        <ele>56.92</ele>
        <time>2025-01-19T09:16:59Z</time>
      </trkpt>
      <trkpt lat="48.92718" lon="2.0959">
        <ele>56.24</ele>
        <time>2025-01-19T09:17:08Z</time>
      </trkpt>
      <trkpt lat="48.92723" lon="2.09591">
        <ele>56.86</ele>
        <time>2025-01-19T09:17:12Z</time>
      </trkpt>
      <trkpt lat="48.92744" lon="2.09587">
        <ele>56.65</ele>
        <time>2025-01-19T09:17:25Z</time>
      </trkpt>
      <trkpt lat="48.9275" lon="2.09586">
        <ele>56.5</ele>
        <time>2025-01-19T09:17:29Z</time>
      </trkpt>
      <trkpt lat="48.92751" lon="2.09586">
        <ele>56.6</ele>
        <time>2025-01-19T09:17:30Z</time>
      </trkpt>
      <trkpt lat="48.92761" lon="2.09585">
        <ele>56.8</ele>
        <time>2025-01-19T09:17:40Z</time>
      </trkpt>
      <trkpt lat="48.92758" lon="2.09585">
        <ele>56.4</ele>
        <time>2025-01-19T09:17:47Z</time>
      </trkpt>
      <trkpt lat="48.92757" lon="2.09591">
        <ele>56.57</ele>
        <time>2025-01-19T09:17:56Z</time>
      </trkpt>
      <trkpt lat="48.92762" lon="2.09595">
        <ele>56.4</ele>
        <time>2025-01-19T09:18:11Z</time>
      </trkpt>
      <trkpt lat="48.92767" lon="2.09608">
        <ele>56.3</ele>
        <time>2025-01-19T09:18:22Z</time>
      </trkpt>
      <trkpt lat="48.92778" lon="2.09628">
        <ele>55.68</ele>
        <time>2025-01-19T09:18:36Z</time>
      </trkpt>
      <trkpt lat="48.92787" lon="2.0965">
        <ele>55.36</ele>
        <time>2025-01-19T09:18:51Z</time>
      </trkpt>
      <trkpt lat="48.92797" lon="2.09673">
        <ele>55.64</ele>
        <time>2025-01-19T09:19:05Z</time>
      </trkpt>
      <trkpt lat="48.92806" lon="2.09694">
        <ele>55.44</ele>
        <time>2025-01-19T09:19:19Z</time>
      </trkpt>
      <trkpt lat="48.92818" lon="2.09713">
        <ele>55.21</ele>
        <time>2025-01-19T09:19:32Z</time>
      </trkpt>
      <trkpt lat="48.92829" lon="2.09729">
        <ele>54.89</ele>
        <time>2025-01-19T09:19:43Z</time>
      </trkpt>
      <trkpt lat="48.92839" lon="2.09759">
        <ele>54.74</ele>
        <time>2025-01-19T09:20:00Z</time>
      </trkpt>
      <trkpt lat="48.92852" lon="2.09789">
        <ele>54.6</ele>
        <time>2025-01-19T09:20:17Z</time>
      </trkpt>
      <trkpt lat="48.92861" lon="2.09808">
        <ele>54.86</ele>
        <time>2025-01-19T09:20:32Z</time>
      </trkpt>
      <trkpt lat="48.92867" lon="2.09819">
        <ele>54.16</ele>
        <time>2025-01-19T09:20:39Z</time>
      </trkpt>
      <trkpt lat="48.92871" lon="2.09831">
        <ele>55.05</ele>
        <time>2025-01-19T09:20:49Z</time>
      </trkpt>
      <trkpt lat="48.92876" lon="2.09842">
        <ele>54.72</ele>
        <time>2025-01-19T09:21:04Z</time>
      </trkpt>
      <trkpt lat="48.92883" lon="2.09844">
        <ele>54.82</ele>
        <time>2025-01-19T09:21:16Z</time>
      </trkpt>
      <trkpt lat="48.92892" lon="2.09852">
        <ele>54.08</ele>
        <time>2025-01-19T09:21:28Z</time>
      </trkpt>
      <trkpt lat="48.92902" lon="2.09857">
        <ele>54.37</ele>
        <time>2025-01-19T09:21:37Z</time>
      </trkpt>
      <trkpt lat="48.92915" lon="2.09864">
        <ele>54.19</ele>
        <time>2025-01-19T09:21:48Z</time>
      </trkpt>
      <trkpt lat="48.92929" lon="2.09873">
        <ele>53.86</ele>
        <time>2025-01-19T09:21:58Z</time>
      </trkpt>
      <trkpt lat="48.92945" lon="2.09881">
        <ele>53.78</ele>
        <time>2025-01-19T09:22:09Z</time>
      </trkpt>
      <trkpt lat="48.9296" lon="2.09887">
        <ele>52.63</ele>
        <time>2025-01-19T09:22:19Z</time>
      </trkpt>
      <trkpt lat="48.92971" lon="2.09894">
        <ele>53.61</ele>
        <time>2025-01-19T09:22:29Z</time>
      </trkpt>
      <trkpt lat="48.92984" lon="2.09902">
        <ele>53.2</ele>
        <time>2025-01-19T09:22:39Z</time>
      </trkpt>
      <trkpt lat="48.92994" lon="2.09906">
        <ele>52.56</ele>
        <time>2025-01-19T09:22:46Z</time>
      </trkpt>
      <trkpt lat="48.92996" lon="2.09907">
        <ele>52.95</ele>
        <time>2025-01-19T09:22:48Z</time>
      </trkpt>
      <trkpt lat="48.93009" lon="2.09914">
        <ele>52.47</ele>
        <time>2025-01-19T09:22:58Z</time>
      </trkpt>
      <trkpt lat="48.93028" lon="2.09924">
        <ele>52.77</ele>
        <time>2025-01-19T09:23:12Z</time>
      </trkpt>
      <trkpt lat="48.93048" lon="2.09931">
        <ele>52.76</ele>
        <time>2025-01-19T09:23:23Z</time>
      </trkpt>
      <trkpt lat="48.93059" lon="2.09939">
        <ele>52.77</ele>
        <time>2025-01-19T09:23:32Z</time>
      </trkpt>
      <trkpt lat="48.93062" lon="2.09941">
        <ele>52.81</ele>
        <time>2025-01-19T09:23:34Z</time>
      </trkpt>
      <trkpt lat="48.93062" lon="2.09942">
        <ele>52.35</ele>
        <time>2025-01-19T09:23:35Z</time>
      </trkpt>
      <trkpt lat="48.93065" lon="2.09945">
        <ele>52.48</ele>
        <time>2025-01-19T09:23:38Z</time>
      </trkpt>
      <trkpt lat="48.9308" lon="2.0995">
        <ele>52.49</ele>
        <time>2025-01-19T09:23:48Z</time>
      </trkpt>
      <trkpt lat="48.93095" lon="2.09954">
        <ele>52.83</ele>
        <time>2025-01-19T09:23:59Z</time>
      </trkpt>
      <trkpt lat="48.93113" lon="2.09962">
        <ele>52.57</ele>
        <time>2025-01-19T09:24:11Z</time>
      </trkpt>
      <trkpt lat="48.93132" lon="2.09976">
        <ele>52.27</ele>
        <time>2025-01-19T09:24:25Z</time>
      </trkpt>
      <trkpt lat="48.93147" lon="2.09982">
        <ele>52.38</ele>
        <time>2025-01-19T09:24:35Z</time>
      </trkpt>
      <trkpt lat="48.93163" lon="2.09992">
        <ele>52.39</ele>
        <time>2025-01-19T09:24:47Z</time>
      </trkpt>
      <trkpt lat="48.93176" lon="2.1">
        <ele>52.62</ele>
        <time>2025-01-19T09:24:57Z</time>
      </trkpt>
      <trkpt lat="48.93192" lon="2.10008">
        <ele>52.64</ele>
        <time>2025-01-19T09:25:08Z</time>
      </trkpt>
      <trkpt lat="48.93197" lon="2.10011">
        <ele>52.98</ele>
        <time>2025-01-19T09:25:12Z</time>
      </trkpt>
      <trkpt lat="48.93201" lon="2.10013">
        <ele>52.69</ele>
        <time>2025-01-19T09:25:15Z</time>
      </trkpt>
      <trkpt lat="48.93204" lon="2.10013">
        <ele>52.76</ele>
        <time>2025-01-19T09:25:16Z</time>
      </trkpt>
      <trkpt lat="48.93205" lon="2.10014">
        <ele>52.87</ele>
        <time>2025-01-19T09:25:17Z</time>
      </trkpt>
      <trkpt lat="48.93207" lon="2.10014">
        <ele>53.39</ele>
        <time>2025-01-19T09:25:18Z</time>
      </trkpt>
      <trkpt lat="48.93209" lon="2.10014">
        <ele>53.38</ele>
        <time>2025-01-19T09:25:19Z</time>
      </trkpt>
      <trkpt lat="48.9321" lon="2.10014">
        <ele>52.77</ele>
        <time>2025-01-19T09:25:20Z</time>
      </trkpt>
      <trkpt lat="48.93217" lon="2.10018">
        <ele>52.77</ele>
        <time>2025-01-19T09:25:24Z</time>
      </trkpt>
      <trkpt lat="48.93218" lon="2.10019">
        <ele>52.82</ele>
        <time>2025-01-19T09:25:25Z</time>
      </trkpt>
      <trkpt lat="48.93223" lon="2.10022">
        <ele>52.42</ele>
        <time>2025-01-19T09:25:29Z</time>
      </trkpt>
      <trkpt lat="48.93224" lon="2.10024">
        <ele>52.39</ele>
        <time>2025-01-19T09:25:30Z</time>
      </trkpt>
      <trkpt lat="48.93225" lon="2.10025">
        <ele>52.94</ele>
        <time>2025-01-19T09:25:31Z</time>
      </trkpt>
      <trkpt lat="48.93238" lon="2.10033">
        <ele>52.83</ele>
        <time>2025-01-19T09:25:41Z</time>
      </trkpt>
      <trkpt lat="48.93239" lon="2.10034">
        <ele>53.66</ele>
        <time>2025-01-19T09:25:42Z</time>
      </trkpt>
      <trkpt lat="48.9324" lon="2.10035">
        <ele>52.8</ele>
        <time>2025-01-19T09:25:43Z</time>
      </trkpt>
      <trkpt lat="48.93249" lon="2.10039">
        <ele>53.37</ele>
        <time>2025-01-19T09:25:50Z</time>
      </trkpt>
      <trkpt lat="48.9325" lon="2.1004">
        <ele>53.34</ele>
        <time>2025-01-19T09:25:51Z</time>
      </trkpt>
      <trkpt lat="48.93265" lon="2.10047">
        <ele>53.81</ele>
        <time>2025-01-19T09:26:01Z</time>
      </trkpt>
      <trkpt lat="48.93277" lon="2.10054">
        <ele>54.03</ele>
        <time>2025-01-19T09:26:12Z</time>
      </trkpt>
      <trkpt lat="48.93282" lon="2.10061">
        <ele>53.58</ele>
        <time>2025-01-19T09:26:17Z</time>
      </trkpt>
      <trkpt lat="48.93282" lon="2.10065">
        <ele>53.18</ele>
        <time>2025-01-19T09:26:20Z</time>
      </trkpt>
      <trkpt lat="48.93283" lon="2.10067">
        <ele>53.37</ele>
        <time>2025-01-19T09:26:21Z</time>
      </trkpt>
      <trkpt lat="48.93284" lon="2.10082">
        <ele>53.89</ele>
        <time>2025-01-19T09:26:30Z</time>
      </trkpt>
      <trkpt lat="48.93284" lon="2.10089">
        <ele>52.75</ele>
        <time>2025-01-19T09:26:34Z</time>
      </trkpt>
      <trkpt lat="48.93285" lon="2.10096">
        <ele>53.16</ele>
        <time>2025-01-19T09:26:38Z</time>
      </trkpt>
      <trkpt lat="48.93284" lon="2.10118">
        <ele>52.46</ele>
        <time>2025-01-19T09:26:47Z</time>
      </trkpt>
      <trkpt lat="48.93282" lon="2.10139">
        <ele>52.94</ele>
        <time>2025-01-19T09:26:56Z</time>
      </trkpt>
      <trkpt lat="48.93282" lon="2.10143">
        <ele>52.89</ele>
        <time>2025-01-19T09:26:58Z</time>
      </trkpt>
      <trkpt lat="48.93282" lon="2.1017">
        <ele>52.84</ele>
        <time>2025-01-19T09:27:11Z</time>
      </trkpt>
      <trkpt lat="48.93281" lon="2.10192">
        <ele>52.68</ele>
        <time>2025-01-19T09:27:22Z</time>
      </trkpt>
      <trkpt lat="48.93282" lon="2.10217">
        <ele>52.71</ele>
        <time>2025-01-19T09:27:33Z</time>
      </trkpt>
      <trkpt lat="48.9328" lon="2.10238">
        <ele>51.99</ele>
        <time>2025-01-19T09:27:44Z</time>
      </trkpt>
      <trkpt lat="48.93279" lon="2.10244">
        <ele>53.18</ele>
        <time>2025-01-19T09:27:47Z</time>
      </trkpt>
      <trkpt lat="48.93277" lon="2.10258">
        <ele>52.32</ele>
        <time>2025-01-19T09:27:53Z</time>
      </trkpt>
      <trkpt lat="48.93279" lon="2.10288">
        <ele>52.3</ele>
        <time>2025-01-19T09:28:05Z</time>
      </trkpt>
      <trkpt lat="48.93278" lon="2.10306">
        <ele>52.47</ele>
        <time>2025-01-19T09:28:15Z</time>
      </trkpt>
      <trkpt lat="48.93278" lon="2.10311">
        <ele>52.45</ele>
        <time>2025-01-19T09:28:17Z</time>
      </trkpt>
      <trkpt lat="48.93276" lon="2.10318">
        <ele>52.53</ele>
        <time>2025-01-19T09:28:21Z</time>
      </trkpt>
      <trkpt lat="48.93276" lon="2.10326">
        <ele>52.04</ele>
        <time>2025-01-19T09:28:24Z</time>
      </trkpt>
      <trkpt lat="48.93276" lon="2.10337">
        <ele>52.18</ele>
        <time>2025-01-19T09:28:29Z</time>
      </trkpt>
      <trkpt lat="48.93274" lon="2.10349">
        <ele>51.63</ele>
        <time>2025-01-19T09:28:34Z</time>
      </trkpt>
      <trkpt lat="48.93272" lon="2.10356">
        <ele>52.45</ele>
        <time>2025-01-19T09:28:38Z</time>
      </trkpt>
      <trkpt lat="48.93272" lon="2.10361">
        <ele>51.92</ele>
        <time>2025-01-19T09:28:40Z</time>
      </trkpt>
      <trkpt lat="48.93269" lon="2.10371">
        <ele>51.52</ele>
        <time>2025-01-19T09:28:45Z</time>
      </trkpt>
      <trkpt lat="48.93264" lon="2.10388">
        <ele>51.48</ele>
        <time>2025-01-19T09:28:55Z</time>
      </trkpt>
      <trkpt lat="48.9326" lon="2.10406">
        <ele>51.73</ele>
        <time>2025-01-19T09:29:03Z</time>
      </trkpt>
      <trkpt lat="48.93255" lon="2.1043">
        <ele>51.48</ele>
        <time>2025-01-19T09:29:15Z</time>
      </trkpt>
      <trkpt lat="48.93253" lon="2.1045">
        <ele>50.84</ele>
        <time>2025-01-19T09:29:24Z</time>
      </trkpt>
      <trkpt lat="48.93252" lon="2.1047">
        <ele>51.31</ele>
        <time>2025-01-19T09:29:34Z</time>
      </trkpt>
      <trkpt lat="48.93252" lon="2.105">
        <ele>50.83</ele>
        <time>2025-01-19T09:29:44Z</time>
      </trkpt>
      <trkpt lat="48.93251" lon="2.10502">
        <ele>50.69</ele>
        <time>2025-01-19T09:29:45Z</time>
      </trkpt>
      <trkpt lat="48.9325" lon="2.10512">
        <ele>51.02</ele>
        <time>2025-01-19T09:29:50Z</time>
      </trkpt>
      <trkpt lat="48.93251" lon="2.1053">
        <ele>51.42</ele>
        <time>2025-01-19T09:29:58Z</time>
      </trkpt>
      <trkpt lat="48.93252" lon="2.1055">
        <ele>50.9</ele>
        <time>2025-01-19T09:30:09Z</time>
      </trkpt>
      <trkpt lat="48.93251" lon="2.10565">
        <ele>50.91</ele>
        <time>2025-01-19T09:30:17Z</time>
      </trkpt>
      <trkpt lat="48.9325" lon="2.1058">
        <ele>51.02</ele>
        <time>2025-01-19T09:30:23Z</time>
      </trkpt>
      <trkpt lat="48.93248" lon="2.10598">
        <ele>50.91</ele>
        <time>2025-01-19T09:30:32Z</time>
      </trkpt>
      <trkpt lat="48.93245" lon="2.10611">
        <ele>50.96</ele>
        <time>2025-01-19T09:30:37Z</time>
      </trkpt>
      <trkpt lat="48.93237" lon="2.10627">
        <ele>50.48</ele>
        <time>2025-01-19T09:30:47Z</time>
      </trkpt>
      <trkpt lat="48.93238" lon="2.10629">
        <ele>50.82</ele>
        <time>2025-01-19T09:31:03Z</time>
      </trkpt>
      <trkpt lat="48.93236" lon="2.10629">
        <ele>50.43</ele>
        <time>2025-01-19T09:31:18Z</time>
      </trkpt>
      <trkpt lat="48.93236" lon="2.10626">
        <ele>50.99</ele>
        <time>2025-01-19T09:31:34Z</time>
      </trkpt>
      <trkpt lat="48.93236" lon="2.10625">
        <ele>50.8</ele>
        <time>2025-01-19T09:31:51Z</time>
      </trkpt>
      <trkpt lat="48.93236" lon="2.10625">
        <ele>51.84</ele>
        <time>2025-01-19T09:32:11Z</time>
      </trkpt>
      <trkpt lat="48.93235" lon="2.10624">
        <ele>51.24</ele>
        <time>2025-01-19T09:32:27Z</time>
      </trkpt>
      <trkpt lat="48.93234" lon="2.10623">
        <ele>51.21</ele>
        <time>2025-01-19T09:32:45Z</time>
      </trkpt>
      <trkpt lat="48.93226" lon="2.10622">
        <ele>50.89</ele>
        <time>2025-01-19T09:32:58Z</time>
      </trkpt>
      <trkpt lat="48.93223" lon="2.10622">
        <ele>50.82</ele>
        <time>2025-01-19T09:33:00Z</time>
      </trkpt>
      <trkpt lat="48.93217" lon="2.10619">
        <ele>50.6</ele>
        <time>2025-01-19T09:33:05Z</time>
      </trkpt>
      <trkpt lat="48.93204" lon="2.10616">
        <ele>50.72</ele>
        <time>2025-01-19T09:33:16Z</time>
      </trkpt>
      <trkpt lat="48.93199" lon="2.10616">
        <ele>50.6</ele>
        <time>2025-01-19T09:33:19Z</time>
      </trkpt>
      <trkpt lat="48.93184" lon="2.10611">
        <ele>50.45</ele>
        <time>2025-01-19T09:33:30Z</time>
      </trkpt>
      <trkpt lat="48.93176" lon="2.1061">
        <ele>50.54</ele>
        <time>2025-01-19T09:33:35Z</time>
      </trkpt>
      <trkpt lat="48.93163" lon="2.10607">
        <ele>50.64</ele>
        <time>2025-01-19T09:33:43Z</time>
      </trkpt>
      <trkpt lat="48.93151" lon="2.106">
        <ele>50.1</ele>
        <time>2025-01-19T09:33:52Z</time>
      </trkpt>
      <trkpt lat="48.93138" lon="2.10593">
        <ele>49.94</ele>
        <time>2025-01-19T09:34:01Z</time>
      </trkpt>
      <trkpt lat="48.93121" lon="2.10591">
        <ele>49.24</ele>
        <time>2025-01-19T09:34:12Z</time>
      </trkpt>
      <trkpt lat="48.93107" lon="2.10586">
        <ele>48.64</ele>
        <time>2025-01-19T09:34:23Z</time>
      </trkpt>
      <trkpt lat="48.93094" lon="2.10579">
        <ele>46.75</ele>
        <time>2025-01-19T09:34:33Z</time>
      </trkpt>
      <trkpt lat="48.93093" lon="2.1058">
        <ele>46.73</ele>
        <time>2025-01-19T09:34:34Z</time>
      </trkpt>
      <trkpt lat="48.93086" lon="2.10581">
        <ele>47.03</ele>
        <time>2025-01-19T09:34:40Z</time>
      </trkpt>
      <trkpt lat="48.93082" lon="2.10583">
        <ele>46.48</ele>
        <time>2025-01-19T09:34:42Z</time>
      </trkpt>
      <trkpt lat="48.9307" lon="2.10576">
        <ele>46.22</ele>
        <time>2025-01-19T09:34:53Z</time>
      </trkpt>
      <trkpt lat="48.93059" lon="2.10569">
        <ele>45.92</ele>
        <time>2025-01-19T09:35:00Z</time>
      </trkpt>
      <trkpt lat="48.93048" lon="2.10563">
        <ele>46.33</ele>
        <time>2025-01-19T09:35:07Z</time>
      </trkpt>
      <trkpt lat="48.93045" lon="2.10563">
        <ele>46.32</ele>
        <time>2025-01-19T09:35:09Z</time>
      </trkpt>
      <trkpt lat="48.93038" lon="2.10565">
        <ele>46.22</ele>
        <time>2025-01-19T09:35:16Z</time>
      </trkpt>
      <trkpt lat="48.93035" lon="2.10563">
        <ele>45.84</ele>
        <time>2025-01-19T09:35:19Z</time>
      </trkpt>
      <trkpt lat="48.93024" lon="2.10561">
        <ele>45.97</ele>
        <time>2025-01-19T09:35:28Z</time>
      </trkpt>
      <trkpt lat="48.93021" lon="2.10559">
        <ele>46.49</ele>
        <time>2025-01-19T09:35:30Z</time>
      </trkpt>
      <trkpt lat="48.93009" lon="2.10555">
        <ele>46.34</ele>
        <time>2025-01-19T09:35:40Z</time>
      </trkpt>
      <trkpt lat="48.92998" lon="2.1055">
        <ele>46.28</ele>
        <time>2025-01-19T09:35:49Z</time>
      </trkpt>
      <trkpt lat="48.92995" lon="2.10548">
        <ele>46.61</ele>
        <time>2025-01-19T09:35:51Z</time>
      </trkpt>
      <trkpt lat="48.92975" lon="2.10542">
        <ele>46.43</ele>
        <time>2025-01-19T09:36:02Z</time>
      </trkpt>
      <trkpt lat="48.92974" lon="2.10541">
        <ele>46.19</ele>
        <time>2025-01-19T09:36:03Z</time>
      </trkpt>
      <trkpt lat="48.92965" lon="2.10536">
        <ele>46.79</ele>
        <time>2025-01-19T09:36:10Z</time>
      </trkpt>
      <trkpt lat="48.92959" lon="2.10534">
        <ele>46.97</ele>
        <time>2025-01-19T09:36:15Z</time>
      </trkpt>
      <trkpt lat="48.92958" lon="2.10536">
        <ele>47.26</ele>
        <time>2025-01-19T09:36:17Z</time>
      </trkpt>
      <trkpt lat="48.92959" lon="2.10553">
        <ele>46.28</ele>
        <time>2025-01-19T09:36:31Z</time>
      </trkpt>
      <trkpt lat="48.92959" lon="2.10557">
        <ele>46.26</ele>
        <time>2025-01-19T09:36:34Z</time>
      </trkpt>
      <trkpt lat="48.92962" lon="2.10583">
        <ele>45.8</ele>
        <time>2025-01-19T09:36:46Z</time>
      </trkpt>
      <trkpt lat="48.92967" lon="2.10603">
        <ele>44.57</ele>
        <time>2025-01-19T09:36:59Z</time>
      </trkpt>
      <trkpt lat="48.9297" lon="2.10628">
        <ele>44.23</ele>
        <time>2025-01-19T09:37:11Z</time>
      </trkpt>
      <trkpt lat="48.92974" lon="2.10636">
        <ele>43.81</ele>
        <time>2025-01-19T09:37:15Z</time>
      </trkpt>
      <trkpt lat="48.92979" lon="2.10642">
        <ele>43.8</ele>
        <time>2025-01-19T09:37:18Z</time>
      </trkpt>
      <trkpt lat="48.92989" lon="2.10667">
        <ele>42.77</ele>
        <time>2025-01-19T09:37:32Z</time>
      </trkpt>
      <trkpt lat="48.93003" lon="2.10675">
        <ele>43</ele>
        <time>2025-01-19T09:37:41Z</time>
      </trkpt>
      <trkpt lat="48.93012" lon="2.10684">
        <ele>43.46</ele>
        <time>2025-01-19T09:37:49Z</time>
      </trkpt>
      <trkpt lat="48.93016" lon="2.10687">
        <ele>44.06</ele>
        <time>2025-01-19T09:37:51Z</time>
      </trkpt>
      <trkpt lat="48.93023" lon="2.10697">
        <ele>44.62</ele>
        <time>2025-01-19T09:37:57Z</time>
      </trkpt>
      <trkpt lat="48.93029" lon="2.10709">
        <ele>45.95</ele>
        <time>2025-01-19T09:38:05Z</time>
      </trkpt>
      <trkpt lat="48.93034" lon="2.10717">
        <ele>46.53</ele>
        <time>2025-01-19T09:38:09Z</time>
      </trkpt>
      <trkpt lat="48.93039" lon="2.10721">
        <ele>46.68</ele>
        <time>2025-01-19T09:38:12Z</time>
      </trkpt>
      <trkpt lat="48.93043" lon="2.10727">
        <ele>46.7</ele>
        <time>2025-01-19T09:38:16Z</time>
      </trkpt>
      <trkpt lat="48.93048" lon="2.10736">
        <ele>47.22</ele>
        <time>2025-01-19T09:38:22Z</time>
      </trkpt>
      <trkpt lat="48.93056" lon="2.10747">
        <ele>46.94</ele>
        <time>2025-01-19T09:38:30Z</time>
      </trkpt>
      <trkpt lat="48.93058" lon="2.10753">
        <ele>47.23</ele>
        <time>2025-01-19T09:38:34Z</time>
      </trkpt>
      <trkpt lat="48.93061" lon="2.10759">
        <ele>46.72</ele>
        <time>2025-01-19T09:38:37Z</time>
      </trkpt>
      <trkpt lat="48.93065" lon="2.10772">
        <ele>47.37</ele>
        <time>2025-01-19T09:38:43Z</time>
      </trkpt>
      <trkpt lat="48.93066" lon="2.10776">
        <ele>46.92</ele>
        <time>2025-01-19T09:38:45Z</time>
      </trkpt>
      <trkpt lat="48.93069" lon="2.10786">
        <ele>46.8</ele>
        <time>2025-01-19T09:38:50Z</time>
      </trkpt>
      <trkpt lat="48.93074" lon="2.10796">
        <ele>47.07</ele>
        <time>2025-01-19T09:38:55Z</time>
      </trkpt>
      <trkpt lat="48.93078" lon="2.10802">
        <ele>47.06</ele>
        <time>2025-01-19T09:39:02Z</time>
      </trkpt>
      <trkpt lat="48.93079" lon="2.10808">
        <ele>46.93</ele>
        <time>2025-01-19T09:39:05Z</time>
      </trkpt>
      <trkpt lat="48.93083" lon="2.10828">
        <ele>47.06</ele>
        <time>2025-01-19T09:39:15Z</time>
      </trkpt>
      <trkpt lat="48.93085" lon="2.10848">
        <ele>47.48</ele>
        <time>2025-01-19T09:39:25Z</time>
      </trkpt>
      <trkpt lat="48.93086" lon="2.10849">
        <ele>48.16</ele>
        <time>2025-01-19T09:39:26Z</time>
      </trkpt>
      <trkpt lat="48.93093" lon="2.10875">
        <ele>47.5</ele>
        <time>2025-01-19T09:39:38Z</time>
      </trkpt>
      <trkpt lat="48.931" lon="2.1089">
        <ele>47.95</ele>
        <time>2025-01-19T09:39:46Z</time>
      </trkpt>
      <trkpt lat="48.93104" lon="2.10895">
        <ele>47.94</ele>
        <time>2025-01-19T09:39:50Z</time>
      </trkpt>
      <trkpt lat="48.93107" lon="2.10903">
        <ele>47.94</ele>
        <time>2025-01-19T09:39:53Z</time>
      </trkpt>
      <trkpt lat="48.93118" lon="2.10925">
        <ele>47.91</ele>
        <time>2025-01-19T09:40:04Z</time>
      </trkpt>
      <trkpt lat="48.93134" lon="2.10939">
        <ele>48.43</ele>
        <time>2025-01-19T09:40:17Z</time>
      </trkpt>
      <trkpt lat="48.93138" lon="2.1094">
        <ele>47.77</ele>
        <time>2025-01-19T09:40:21Z</time>
      </trkpt>
      <trkpt lat="48.93143" lon="2.10941">
        <ele>48.82</ele>
        <time>2025-01-19T09:40:25Z</time>
      </trkpt>
      <trkpt lat="48.93157" lon="2.10947">
        <ele>49.18</ele>
        <time>2025-01-19T09:40:35Z</time>
      </trkpt>
      <trkpt lat="48.93178" lon="2.10952">
        <ele>48.73</ele>
        <time>2025-01-19T09:40:47Z</time>
      </trkpt>
      <trkpt lat="48.93182" lon="2.10952">
        <ele>49.1</ele>
        <time>2025-01-19T09:40:49Z</time>
      </trkpt>
      <trkpt lat="48.93206" lon="2.10947">
        <ele>49.03</ele>
        <time>2025-01-19T09:41:06Z</time>
      </trkpt>
      <trkpt lat="48.93225" lon="2.10939">
        <ele>49.45</ele>
        <time>2025-01-19T09:41:19Z</time>
      </trkpt>
      <trkpt lat="48.93241" lon="2.10929">
        <ele>49.28</ele>
        <time>2025-01-19T09:41:29Z</time>
      </trkpt>
      <trkpt lat="48.93247" lon="2.10927">
        <ele>49.58</ele>
        <time>2025-01-19T09:41:32Z</time>
      </trkpt>
      <trkpt lat="48.93264" lon="2.10919">
        <ele>49.68</ele>
        <time>2025-01-19T09:41:45Z</time>
      </trkpt>
      <trkpt lat="48.93273" lon="2.10924">
        <ele>49.42</ele>
        <time>2025-01-19T09:41:53Z</time>
      </trkpt>
      <trkpt lat="48.9329" lon="2.1093">
        <ele>49.74</ele>
        <time>2025-01-19T09:42:04Z</time>
      </trkpt>
      <trkpt lat="48.93303" lon="2.10936">
        <ele>49.59</ele>
        <time>2025-01-19T09:42:14Z</time>
      </trkpt>
      <trkpt lat="48.93316" lon="2.10943">
        <ele>49.53</ele>
        <time>2025-01-19T09:42:23Z</time>
      </trkpt>
      <trkpt lat="48.93334" lon="2.10951">
        <ele>49.23</ele>
        <time>2025-01-19T09:42:36Z</time>
      </trkpt>
      <trkpt lat="48.93339" lon="2.10953">
        <ele>49.2</ele>
        <time>2025-01-19T09:42:39Z</time>
      </trkpt>
      <trkpt lat="48.93346" lon="2.10955">
        <ele>49.01</ele>
        <time>2025-01-19T09:42:43Z</time>
      </trkpt>
      <trkpt lat="48.93358" lon="2.10959">
        <ele>48.95</ele>
        <time>2025-01-19T09:42:56Z</time>
      </trkpt>
      <trkpt lat="48.93374" lon="2.10962">
        <ele>48.69</ele>
        <time>2025-01-19T09:43:09Z</time>
      </trkpt>
      <trkpt lat="48.93377" lon="2.10962">
        <ele>49.33</ele>
        <time>2025-01-19T09:43:26Z</time>
      </trkpt>
      <trkpt lat="48.93377" lon="2.10968">
        <ele>49.4</ele>
        <time>2025-01-19T09:43:39Z</time>
      </trkpt>
      <trkpt lat="48.9338" lon="2.10977">
        <ele>49.28</ele>
        <time>2025-01-19T09:43:54Z</time>
      </trkpt>
      <trkpt lat="48.93384" lon="2.10979">
        <ele>49.38</ele>
        <time>2025-01-19T09:44:08Z</time>
      </trkpt>
      <trkpt lat="48.93386" lon="2.10988">
        <ele>49.42</ele>
        <time>2025-01-19T09:44:16Z</time>
      </trkpt>
      <trkpt lat="48.93387" lon="2.10996">
        <ele>48.49</ele>
        <time>2025-01-19T09:44:19Z</time>
      </trkpt>
      <trkpt lat="48.93391" lon="2.11001">
        <ele>48.69</ele>
        <time>2025-01-19T09:44:24Z</time>
      </trkpt>
      <trkpt lat="48.93393" lon="2.11007">
        <ele>48.86</ele>
        <time>2025-01-19T09:44:28Z</time>
      </trkpt>
      <trkpt lat="48.93397" lon="2.11024">
        <ele>48.74</ele>
        <time>2025-01-19T09:44:36Z</time>
      </trkpt>
      <trkpt lat="48.93405" lon="2.11041">
        <ele>48.52</ele>
        <time>2025-01-19T09:44:48Z</time>
      </trkpt>
      <trkpt lat="48.93408" lon="2.11047">
        <ele>47.75</ele>
        <time>2025-01-19T09:44:51Z</time>
      </trkpt>
      <trkpt lat="48.93419" lon="2.11059">
        <ele>48.71</ele>
        <time>2025-01-19T09:45:01Z</time>
      </trkpt>
      <trkpt lat="48.93427" lon="2.11074">
        <ele>48.31</ele>
        <time>2025-01-19T09:45:12Z</time>
      </trkpt>
      <trkpt lat="48.93449" lon="2.11091">
        <ele>47.63</ele>
        <time>2025-01-19T09:45:28Z</time>
      </trkpt>
      <trkpt lat="48.93459" lon="2.11105">
        <ele>46.93</ele>
        <time>2025-01-19T09:45:38Z</time>
      </trkpt>
      <trkpt lat="48.93466" lon="2.11121">
        <ele>47.26</ele>
        <time>2025-01-19T09:45:47Z</time>
      </trkpt>
      <trkpt lat="48.93485" lon="2.11127">
        <ele>47.31</ele>
        <time>2025-01-19T09:45:59Z</time>
      </trkpt>
      <trkpt lat="48.93497" lon="2.11131">
        <ele>46.38</ele>
        <time>2025-01-19T09:46:08Z</time>
      </trkpt>
      <trkpt lat="48.93509" lon="2.11133">
        <ele>46.66</ele>
        <time>2025-01-19T09:46:14Z</time>
      </trkpt>
      <trkpt lat="48.93521" lon="2.11135">
        <ele>46.49</ele>
        <time>2025-01-19T09:46:24Z</time>
      </trkpt>
      <trkpt lat="48.93539" lon="2.11141">
        <ele>46.22</ele>
        <time>2025-01-19T09:46:37Z</time>
      </trkpt>
      <trkpt lat="48.93559" lon="2.11143">
        <ele>45.52</ele>
        <time>2025-01-19T09:46:51Z</time>
      </trkpt>
      <trkpt lat="48.93575" lon="2.11148">
        <ele>45.58</ele>
        <time>2025-01-19T09:47:03Z</time>
      </trkpt>
      <trkpt lat="48.93578" lon="2.11148">
        <ele>44.94</ele>
        <time>2025-01-19T09:47:05Z</time>
      </trkpt>
      <trkpt lat="48.93597" lon="2.11153">
        <ele>45.45</ele>
        <time>2025-01-19T09:47:19Z</time>
      </trkpt>
      <trkpt lat="48.93609" lon="2.11159">
        <ele>45.66</ele>
        <time>2025-01-19T09:47:31Z</time>
      </trkpt>
      <trkpt lat="48.93627" lon="2.11163">
        <ele>44.79</ele>
        <time>2025-01-19T09:47:44Z</time>
      </trkpt>
      <trkpt lat="48.93645" lon="2.11168">
        <ele>44.85</ele>
        <time>2025-01-19T09:47:54Z</time>
      </trkpt>
      <trkpt lat="48.93652" lon="2.11169">
        <ele>44.67</ele>
        <time>2025-01-19T09:48:01Z</time>
      </trkpt>
      <trkpt lat="48.93672" lon="2.11175">
        <ele>44.47</ele>
        <time>2025-01-19T09:48:14Z</time>
      </trkpt>
      <trkpt lat="48.93684" lon="2.11176">
        <ele>45.07</ele>
        <time>2025-01-19T09:48:21Z</time>
      </trkpt>
      <trkpt lat="48.93701" lon="2.11178">
        <ele>44.73</ele>
        <time>2025-01-19T09:48:32Z</time>
      </trkpt>
      <trkpt lat="48.93724" lon="2.11185">
        <ele>44.6</ele>
        <time>2025-01-19T09:48:48Z</time>
      </trkpt>
      <trkpt lat="48.93742" lon="2.11189">
        <ele>44.39</ele>
        <time>2025-01-19T09:49:00Z</time>
      </trkpt>
      <trkpt lat="48.93761" lon="2.11194">
        <ele>44.53</ele>
        <time>2025-01-19T09:49:13Z</time>
      </trkpt>
      <trkpt lat="48.93781" lon="2.11195">
        <ele>44.23</ele>
        <time>2025-01-19T09:49:30Z</time>
      </trkpt>
      <trkpt lat="48.93784" lon="2.11196">
        <ele>44.3</ele>
        <time>2025-01-19T09:49:33Z</time>
      </trkpt>
      <trkpt lat="48.93823" lon="2.11211">
        <ele>43.87</ele>
        <time>2025-01-19T09:49:44Z</time>
      </trkpt>
      <trkpt lat="48.93844" lon="2.11244">
        <ele>44.12</ele>
        <time>2025-01-19T09:49:45Z</time>
      </trkpt>
      <trkpt lat="48.93884" lon="2.11283">
        <ele>43.61</ele>
        <time>2025-01-19T09:50:00Z</time>
      </trkpt>
      <trkpt lat="48.93918" lon="2.11329">
        <ele>43.7</ele>
        <time>2025-01-19T09:50:03Z</time>
      </trkpt>
      <trkpt lat="48.94158" lon="2.11635">
        <ele>36.49</ele>
        <time>2025-01-19T09:58:18Z</time>
      </trkpt>
      <trkpt lat="48.93743" lon="2.11557">
        <ele>31.56</ele>
        <time>2025-01-19T10:05:41Z</time>
      </trkpt>
      <trkpt lat="48.93712" lon="2.11784">
        <ele>31.93</ele>
        <time>2025-01-19T10:05:52Z</time>
      </trkpt>
      <trkpt lat="48.93703" lon="2.11846">
        <ele>31.71</ele>
        <time>2025-01-19T10:05:59Z</time>
      </trkpt>
      <trkpt lat="48.93688" lon="2.11874">
        <ele>31.75</ele>
        <time>2025-01-19T10:06:03Z</time>
      </trkpt>
      <trkpt lat="48.93657" lon="2.11862">
        <ele>32.47</ele>
        <time>2025-01-19T10:06:16Z</time>
      </trkpt>
      <trkpt lat="48.93647" lon="2.11856">
        <ele>32.56</ele>
        <time>2025-01-19T10:06:19Z</time>
      </trkpt>
      <trkpt lat="48.93641" lon="2.11859">
        <ele>32.03</ele>
        <time>2025-01-19T10:06:32Z</time>
      </trkpt>
      <trkpt lat="48.93628" lon="2.11864">
        <ele>32.01</ele>
        <time>2025-01-19T10:06:33Z</time>
      </trkpt>
      <trkpt lat="48.93629" lon="2.11841">
        <ele>33.1</ele>
        <time>2025-01-19T10:06:41Z</time>
      </trkpt>
      <trkpt lat="48.93622" lon="2.11842">
        <ele>32.93</ele>
        <time>2025-01-19T10:06:46Z</time>
      </trkpt>
      <trkpt lat="48.9362" lon="2.11842">
        <ele>32.95</ele>
        <time>2025-01-19T10:06:47Z</time>
      </trkpt>
      <trkpt lat="48.93608" lon="2.11845">
        <ele>32.71</ele>
        <time>2025-01-19T10:06:53Z</time>
      </trkpt>
      <trkpt lat="48.93599" lon="2.11847">
        <ele>32.91</ele>
        <time>2025-01-19T10:07:00Z</time>
      </trkpt>
      <trkpt lat="48.93598" lon="2.11847">
        <ele>32.53</ele>
        <time>2025-01-19T10:07:01Z</time>
      </trkpt>
      <trkpt lat="48.93596" lon="2.11847">
        <ele>32.98</ele>
        <time>2025-01-19T10:07:02Z</time>
      </trkpt>
      <trkpt lat="48.9358" lon="2.11851">
        <ele>33.41</ele>
        <time>2025-01-19T10:07:14Z</time>
      </trkpt>
      <trkpt lat="48.93567" lon="2.11854">
        <ele>33.7</ele>
        <time>2025-01-19T10:07:23Z</time>
      </trkpt>
      <trkpt lat="48.93565" lon="2.11854">
        <ele>34.39</ele>
        <time>2025-01-19T10:07:24Z</time>
      </trkpt>
      <trkpt lat="48.93564" lon="2.11855">
        <ele>34.02</ele>
        <time>2025-01-19T10:07:25Z</time>
      </trkpt>
      <trkpt lat="48.93563" lon="2.11857">
        <ele>34.26</ele>
        <time>2025-01-19T10:07:26Z</time>
      </trkpt>
      <trkpt lat="48.93562" lon="2.11857">
        <ele>33.82</ele>
        <time>2025-01-19T10:07:27Z</time>
      </trkpt>
      <trkpt lat="48.9356" lon="2.11856">
        <ele>33.89</ele>
        <time>2025-01-19T10:07:28Z</time>
      </trkpt>
      <trkpt lat="48.93559" lon="2.11856">
        <ele>34.47</ele>
        <time>2025-01-19T10:07:29Z</time>
      </trkpt>
      <trkpt lat="48.93557" lon="2.11856">
        <ele>34.44</ele>
        <time>2025-01-19T10:07:30Z</time>
      </trkpt>
      <trkpt lat="48.93545" lon="2.11855">
        <ele>34.44</ele>
        <time>2025-01-19T10:07:38Z</time>
      </trkpt>
      <trkpt lat="48.9353" lon="2.1186">
        <ele>34.31</ele>
        <time>2025-01-19T10:07:47Z</time>
      </trkpt>
      <trkpt lat="48.93524" lon="2.11861">
        <ele>34.84</ele>
        <time>2025-01-19T10:07:52Z</time>
      </trkpt>
      <trkpt lat="48.93516" lon="2.11858">
        <ele>34.04</ele>
        <time>2025-01-19T10:08:10Z</time>
      </trkpt>
      <trkpt lat="48.93517" lon="2.11856">
        <ele>34.62</ele>
        <time>2025-01-19T10:08:29Z</time>
      </trkpt>
      <trkpt lat="48.93514" lon="2.11854">
        <ele>34.84</ele>
        <time>2025-01-19T10:08:47Z</time>
      </trkpt>
      <trkpt lat="48.93519" lon="2.11856">
        <ele>35.3</ele>
        <time>2025-01-19T10:09:08Z</time>
      </trkpt>
      <trkpt lat="48.93519" lon="2.11854">
        <ele>35.76</ele>
        <time>2025-01-19T10:09:39Z</time>
      </trkpt>
      <trkpt lat="48.93518" lon="2.11857">
        <ele>36.43</ele>
        <time>2025-01-19T10:10:07Z</time>
      </trkpt>
      <trkpt lat="48.93509" lon="2.11858">
        <ele>36.12</ele>
        <time>2025-01-19T10:10:16Z</time>
      </trkpt>
      <trkpt lat="48.93508" lon="2.11857">
        <ele>36.7</ele>
        <time>2025-01-19T10:10:17Z</time>
      </trkpt>
      <trkpt lat="48.93506" lon="2.11857">
        <ele>36.23</ele>
        <time>2025-01-19T10:10:18Z</time>
      </trkpt>
      <trkpt lat="48.93504" lon="2.11858">
        <ele>36.14</ele>
        <time>2025-01-19T10:10:19Z</time>
      </trkpt>
      <trkpt lat="48.93492" lon="2.11857">
        <ele>36.74</ele>
        <time>2025-01-19T10:10:29Z</time>
      </trkpt>
      <trkpt lat="48.93484" lon="2.11855">
        <ele>36.98</ele>
        <time>2025-01-19T10:10:35Z</time>
      </trkpt>
      <trkpt lat="48.93483" lon="2.11854">
        <ele>36.88</ele>
        <time>2025-01-19T10:10:36Z</time>
      </trkpt>
      <trkpt lat="48.93475" lon="2.11852">
        <ele>36.91</ele>
        <time>2025-01-19T10:10:44Z</time>
      </trkpt>
      <trkpt lat="48.93463" lon="2.11851">
        <ele>36.72</ele>
        <time>2025-01-19T10:11:01Z</time>
      </trkpt>
      <trkpt lat="48.93461" lon="2.1185">
        <ele>37.5</ele>
        <time>2025-01-19T10:11:03Z</time>
      </trkpt>
      <trkpt lat="48.93459" lon="2.1185">
        <ele>37.5</ele>
        <time>2025-01-19T10:11:04Z</time>
      </trkpt>
      <trkpt lat="48.93458" lon="2.1185">
        <ele>37.51</ele>
        <time>2025-01-19T10:11:05Z</time>
      </trkpt>
      <trkpt lat="48.93447" lon="2.11845">
        <ele>37.44</ele>
        <time>2025-01-19T10:11:18Z</time>
      </trkpt>
      <trkpt lat="48.93436" lon="2.11843">
        <ele>37.15</ele>
        <time>2025-01-19T10:11:28Z</time>
      </trkpt>
      <trkpt lat="48.93422" lon="2.11841">
        <ele>37.95</ele>
        <time>2025-01-19T10:11:39Z</time>
      </trkpt>
      <trkpt lat="48.93405" lon="2.11837">
        <ele>38.31</ele>
        <time>2025-01-19T10:11:52Z</time>
      </trkpt>
      <trkpt lat="48.93387" lon="2.11833">
        <ele>38.11</ele>
        <time>2025-01-19T10:12:07Z</time>
      </trkpt>
      <trkpt lat="48.93374" lon="2.1183">
        <ele>38.3</ele>
        <time>2025-01-19T10:12:17Z</time>
      </trkpt>
      <trkpt lat="48.93361" lon="2.11827">
        <ele>37.73</ele>
        <time>2025-01-19T10:12:27Z</time>
      </trkpt>
      <trkpt lat="48.93339" lon="2.11824">
        <ele>38.47</ele>
        <time>2025-01-19T10:12:42Z</time>
      </trkpt>
      <trkpt lat="48.93321" lon="2.11821">
        <ele>37.44</ele>
        <time>2025-01-19T10:12:57Z</time>
      </trkpt>
      <trkpt lat="48.93304" lon="2.11819">
        <ele>38.16</ele>
        <time>2025-01-19T10:13:10Z</time>
      </trkpt>
      <trkpt lat="48.93284" lon="2.11813">
        <ele>37.72</ele>
        <time>2025-01-19T10:13:24Z</time>
      </trkpt>
      <trkpt lat="48.93283" lon="2.11812">
        <ele>37.74</ele>
        <time>2025-01-19T10:13:25Z</time>
      </trkpt>
      <trkpt lat="48.9327" lon="2.11808">
        <ele>37.56</ele>
        <time>2025-01-19T10:13:36Z</time>
      </trkpt>
      <trkpt lat="48.93252" lon="2.11806">
        <ele>37.73</ele>
        <time>2025-01-19T10:13:48Z</time>
      </trkpt>
      <trkpt lat="48.93244" lon="2.11805">
        <ele>37.55</ele>
        <time>2025-01-19T10:13:54Z</time>
      </trkpt>
      <trkpt lat="48.93231" lon="2.11797">
        <ele>37.66</ele>
        <time>2025-01-19T10:14:07Z</time>
      </trkpt>
      <trkpt lat="48.93223" lon="2.11795">
        <ele>37.35</ele>
        <time>2025-01-19T10:14:15Z</time>
      </trkpt>
      <trkpt lat="48.93211" lon="2.11788">
        <ele>37.52</ele>
        <time>2025-01-19T10:14:27Z</time>
      </trkpt>
      <trkpt lat="48.93207" lon="2.11788">
        <ele>37.43</ele>
        <time>2025-01-19T10:14:29Z</time>
      </trkpt>
      <trkpt lat="48.93196" lon="2.1179">
        <ele>37.15</ele>
        <time>2025-01-19T10:14:36Z</time>
      </trkpt>
      <trkpt lat="48.93193" lon="2.11788">
        <ele>37.85</ele>
        <time>2025-01-19T10:14:38Z</time>
      </trkpt>
      <trkpt lat="48.93182" lon="2.11787">
        <ele>36.84</ele>
        <time>2025-01-19T10:14:45Z</time>
      </trkpt>
      <trkpt lat="48.93174" lon="2.11786">
        <ele>37.08</ele>
        <time>2025-01-19T10:14:51Z</time>
      </trkpt>
      <trkpt lat="48.93169" lon="2.11784">
        <ele>36.93</ele>
        <time>2025-01-19T10:14:55Z</time>
      </trkpt>
      <trkpt lat="48.93153" lon="2.11785">
        <ele>36.75</ele>
        <time>2025-01-19T10:15:07Z</time>
      </trkpt>
      <trkpt lat="48.93147" lon="2.11785">
        <ele>36.57</ele>
        <time>2025-01-19T10:15:11Z</time>
      </trkpt>
      <trkpt lat="48.93141" lon="2.1178">
        <ele>37.42</ele>
        <time>2025-01-19T10:15:17Z</time>
      </trkpt>
      <trkpt lat="48.93123" lon="2.11778">
        <ele>36.99</ele>
        <time>2025-01-19T10:15:31Z</time>
      </trkpt>
      <trkpt lat="48.93101" lon="2.11773">
        <ele>36.86</ele>
        <time>2025-01-19T10:15:47Z</time>
      </trkpt>
      <trkpt lat="48.93095" lon="2.11771">
        <ele>36.57</ele>
        <time>2025-01-19T10:15:52Z</time>
      </trkpt>
      <trkpt lat="48.93092" lon="2.11771">
        <ele>36.89</ele>
        <time>2025-01-19T10:15:54Z</time>
      </trkpt>
      <trkpt lat="48.93076" lon="2.11768">
        <ele>35.9</ele>
        <time>2025-01-19T10:16:05Z</time>
      </trkpt>
      <trkpt lat="48.93074" lon="2.11768">
        <ele>35.82</ele>
        <time>2025-01-19T10:16:07Z</time>
      </trkpt>
      <trkpt lat="48.9307" lon="2.11765">
        <ele>36.01</ele>
        <time>2025-01-19T10:16:10Z</time>
      </trkpt>
      <trkpt lat="48.93058" lon="2.1176">
        <ele>36.19</ele>
        <time>2025-01-19T10:16:23Z</time>
      </trkpt>
      <trkpt lat="48.93042" lon="2.11749">
        <ele>36.55</ele>
        <time>2025-01-19T10:16:37Z</time>
      </trkpt>
      <trkpt lat="48.93034" lon="2.11743">
        <ele>36.44</ele>
        <time>2025-01-19T10:16:43Z</time>
      </trkpt>
      <trkpt lat="48.93019" lon="2.11729">
        <ele>36.46</ele>
        <time>2025-01-19T10:16:57Z</time>
      </trkpt>
      <trkpt lat="48.93004" lon="2.11737">
        <ele>35.9</ele>
        <time>2025-01-19T10:17:12Z</time>
      </trkpt>
      <trkpt lat="48.92994" lon="2.11754">
        <ele>36.08</ele>
        <time>2025-01-19T10:17:27Z</time>
      </trkpt>
      <trkpt lat="48.92988" lon="2.11769">
        <ele>34.44</ele>
        <time>2025-01-19T10:17:41Z</time>
      </trkpt>
      <trkpt lat="48.92983" lon="2.11783">
        <ele>34.97</ele>
        <time>2025-01-19T10:17:52Z</time>
      </trkpt>
      <trkpt lat="48.92977" lon="2.11799">
        <ele>34.01</ele>
        <time>2025-01-19T10:18:04Z</time>
      </trkpt>
      <trkpt lat="48.92974" lon="2.11816">
        <ele>33.78</ele>
        <time>2025-01-19T10:18:12Z</time>
      </trkpt>
      <trkpt lat="48.92966" lon="2.1184">
        <ele>33.17</ele>
        <time>2025-01-19T10:18:24Z</time>
      </trkpt>
      <trkpt lat="48.9296" lon="2.11862">
        <ele>32.57</ele>
        <time>2025-01-19T10:18:37Z</time>
      </trkpt>
      <trkpt lat="48.92956" lon="2.11873">
        <ele>32.61</ele>
        <time>2025-01-19T10:18:43Z</time>
      </trkpt>
      <trkpt lat="48.92953" lon="2.11876">
        <ele>32.25</ele>
        <time>2025-01-19T10:18:45Z</time>
      </trkpt>
      <trkpt lat="48.92946" lon="2.11894">
        <ele>31.58</ele>
        <time>2025-01-19T10:18:57Z</time>
      </trkpt>
      <trkpt lat="48.92939" lon="2.11919">
        <ele>30.72</ele>
        <time>2025-01-19T10:19:08Z</time>
      </trkpt>
      <trkpt lat="48.92932" lon="2.11942">
        <ele>30.24</ele>
        <time>2025-01-19T10:19:19Z</time>
      </trkpt>
      <trkpt lat="48.92921" lon="2.11959">
        <ele>30.18</ele>
        <time>2025-01-19T10:19:31Z</time>
      </trkpt>
      <trkpt lat="48.92919" lon="2.11958">
        <ele>30.26</ele>
        <time>2025-01-19T10:19:34Z</time>
      </trkpt>
      <trkpt lat="48.9291" lon="2.11951">
        <ele>30.95</ele>
        <time>2025-01-19T10:19:43Z</time>
      </trkpt>
      <trkpt lat="48.92903" lon="2.11938">
        <ele>30.46</ele>
        <time>2025-01-19T10:19:55Z</time>
      </trkpt>
      <trkpt lat="48.92891" lon="2.11924">
        <ele>30.08</ele>
        <time>2025-01-19T10:20:06Z</time>
      </trkpt>
      <trkpt lat="48.92889" lon="2.11921">
        <ele>30.61</ele>
        <time>2025-01-19T10:20:09Z</time>
      </trkpt>
      <trkpt lat="48.92884" lon="2.11922">
        <ele>30.01</ele>
        <time>2025-01-19T10:20:12Z</time>
      </trkpt>
      <trkpt lat="48.9287" lon="2.11902">
        <ele>29.53</ele>
        <time>2025-01-19T10:20:26Z</time>
      </trkpt>
      <trkpt lat="48.92858" lon="2.11884">
        <ele>29.88</ele>
        <time>2025-01-19T10:20:39Z</time>
      </trkpt>
      <trkpt lat="48.92845" lon="2.11864">
        <ele>29.06</ele>
        <time>2025-01-19T10:20:55Z</time>
      </trkpt>
      <trkpt lat="48.92836" lon="2.11848">
        <ele>28.62</ele>
        <time>2025-01-19T10:21:08Z</time>
      </trkpt>
      <trkpt lat="48.92836" lon="2.11841">
        <ele>28.51</ele>
        <time>2025-01-19T10:21:13Z</time>
      </trkpt>
      <trkpt lat="48.92834" lon="2.11816">
        <ele>28.14</ele>
        <time>2025-01-19T10:21:25Z</time>
      </trkpt>
      <trkpt lat="48.92835" lon="2.1179">
        <ele>28.1</ele>
        <time>2025-01-19T10:21:40Z</time>
      </trkpt>
      <trkpt lat="48.92833" lon="2.11762">
        <ele>27.43</ele>
        <time>2025-01-19T10:21:51Z</time>
      </trkpt>
      <trkpt lat="48.92835" lon="2.11736">
        <ele>27.38</ele>
        <time>2025-01-19T10:22:03Z</time>
      </trkpt>
      <trkpt lat="48.92837" lon="2.11701">
        <ele>27.57</ele>
        <time>2025-01-19T10:22:19Z</time>
      </trkpt>
      <trkpt lat="48.92838" lon="2.1168">
        <ele>26.94</ele>
        <time>2025-01-19T10:22:31Z</time>
      </trkpt>
      <trkpt lat="48.92838" lon="2.11655">
        <ele>27.06</ele>
        <time>2025-01-19T10:22:42Z</time>
      </trkpt>
      <trkpt lat="48.92836" lon="2.11634">
        <ele>27.19</ele>
        <time>2025-01-19T10:22:56Z</time>
      </trkpt>
      <trkpt lat="48.92842" lon="2.11619">
        <ele>26.62</ele>
        <time>2025-01-19T10:23:10Z</time>
      </trkpt>
      <trkpt lat="48.9285" lon="2.11606">
        <ele>27.06</ele>
        <time>2025-01-19T10:23:24Z</time>
      </trkpt>
      <trkpt lat="48.92857" lon="2.11578">
        <ele>26.78</ele>
        <time>2025-01-19T10:23:40Z</time>
      </trkpt>
      <trkpt lat="48.92863" lon="2.11559">
        <ele>27.09</ele>
        <time>2025-01-19T10:23:53Z</time>
      </trkpt>
      <trkpt lat="48.92873" lon="2.11536">
        <ele>27.22</ele>
        <time>2025-01-19T10:24:07Z</time>
      </trkpt>
      <trkpt lat="48.92882" lon="2.11513">
        <ele>28.08</ele>
        <time>2025-01-19T10:24:21Z</time>
      </trkpt>
      <trkpt lat="48.9289" lon="2.11495">
        <ele>27.37</ele>
        <time>2025-01-19T10:24:35Z</time>
      </trkpt>
      <trkpt lat="48.92893" lon="2.11485">
        <ele>27.18</ele>
        <time>2025-01-19T10:24:40Z</time>
      </trkpt>
      <trkpt lat="48.92892" lon="2.11475">
        <ele>27.64</ele>
        <time>2025-01-19T10:24:44Z</time>
      </trkpt>
      <trkpt lat="48.92893" lon="2.11464">
        <ele>27.03</ele>
        <time>2025-01-19T10:24:48Z</time>
      </trkpt>
      <trkpt lat="48.92894" lon="2.11439">
        <ele>27.22</ele>
        <time>2025-01-19T10:25:00Z</time>
      </trkpt>
      <trkpt lat="48.92895" lon="2.11437">
        <ele>27.22</ele>
        <time>2025-01-19T10:25:02Z</time>
      </trkpt>
      <trkpt lat="48.92899" lon="2.11428">
        <ele>28.14</ele>
        <time>2025-01-19T10:25:18Z</time>
      </trkpt>
      <trkpt lat="48.929" lon="2.11409">
        <ele>27.11</ele>
        <time>2025-01-19T10:25:31Z</time>
      </trkpt>
      <trkpt lat="48.92901" lon="2.11397">
        <ele>26.6</ele>
        <time>2025-01-19T10:25:39Z</time>
      </trkpt>
      <trkpt lat="48.92905" lon="2.11378">
        <ele>26.88</ele>
        <time>2025-01-19T10:25:48Z</time>
      </trkpt>
      <trkpt lat="48.9291" lon="2.11362">
        <ele>27.61</ele>
        <time>2025-01-19T10:25:58Z</time>
      </trkpt>
      <trkpt lat="48.92913" lon="2.11344">
        <ele>27.35</ele>
        <time>2025-01-19T10:26:07Z</time>
      </trkpt>
      <trkpt lat="48.92918" lon="2.11334">
        <ele>27.14</ele>
        <time>2025-01-19T10:26:11Z</time>
      </trkpt>
      <trkpt lat="48.92924" lon="2.11319">
        <ele>27.54</ele>
        <time>2025-01-19T10:26:21Z</time>
      </trkpt>
      <trkpt lat="48.92925" lon="2.11292">
        <ele>27.24</ele>
        <time>2025-01-19T10:26:32Z</time>
      </trkpt>
      <trkpt lat="48.92918" lon="2.11261">
        <ele>26.69</ele>
        <time>2025-01-19T10:26:45Z</time>
      </trkpt>
      <trkpt lat="48.92914" lon="2.1125">
        <ele>26.28</ele>
        <time>2025-01-19T10:26:51Z</time>
      </trkpt>
      <trkpt lat="48.92903" lon="2.11233">
        <ele>24.67</ele>
        <time>2025-01-19T10:27:05Z</time>
      </trkpt>
      <trkpt lat="48.92898" lon="2.11224">
        <ele>24.51</ele>
        <time>2025-01-19T10:27:16Z</time>
      </trkpt>
      <trkpt lat="48.92892" lon="2.1121">
        <ele>23.42</ele>
        <time>2025-01-19T10:27:31Z</time>
      </trkpt>
      <trkpt lat="48.92888" lon="2.11187">
        <ele>22.22</ele>
        <time>2025-01-19T10:27:45Z</time>
      </trkpt>
      <trkpt lat="48.92885" lon="2.11162">
        <ele>21.28</ele>
        <time>2025-01-19T10:28:01Z</time>
      </trkpt>
      <trkpt lat="48.92884" lon="2.11161">
        <ele>24.51</ele>
        <time>2025-01-19T10:28:02Z</time>
      </trkpt>
      <trkpt lat="48.92884" lon="2.11161">
        <ele>22.73</ele>
        <time>2025-01-19T10:28:03Z</time>
      </trkpt>
      <trkpt lat="48.92882" lon="2.11159">
        <ele>21.95</ele>
        <time>2025-01-19T10:28:05Z</time>
      </trkpt>
      <trkpt lat="48.92879" lon="2.11155">
        <ele>18.73</ele>
        <time>2025-01-19T10:28:09Z</time>
      </trkpt>
      <trkpt lat="48.92879" lon="2.11153">
        <ele>25.87</ele>
        <time>2025-01-19T10:28:10Z</time>
      </trkpt>
      <trkpt lat="48.92878" lon="2.11152">
        <ele>22.68</ele>
        <time>2025-01-19T10:28:11Z</time>
      </trkpt>
      <trkpt lat="48.92871" lon="2.11125">
        <ele>22.68</ele>
        <time>2025-01-19T10:28:25Z</time>
      </trkpt>
      <trkpt lat="48.92866" lon="2.11104">
        <ele>22.93</ele>
        <time>2025-01-19T10:28:37Z</time>
      </trkpt>
      <trkpt lat="48.92866" lon="2.11098">
        <ele>23.22</ele>
        <time>2025-01-19T10:28:53Z</time>
      </trkpt>
    </trkseg>
  </trk>
</gpx>